<?xml version="1.0" encoding="UTF-8" standalone="no" ?>
<gpx xmlns="http://www.topografix.com/GPX/1/1" xmlns:xsi="http://www.w3.org/2001/XMLSchema-instance" xsi:schemaLocation="http://www.topografix.com/GPX/1/1 http://www.topografix.com/GPX/1/1/gpx.xsd" version="1.1" creator="VisuGPX - https://www.visugpx.com">
  <metadata>
    <name>St lary Pic d'Aret 2945m</name>
    <desc><![CDATA[montée à Aret;belvedère de la vallée d'Aure et des pyrénées centrales]]></desc>
  </metadata>
  <wpt lat="42.79707" lon="0.28833">
    <ele>967.2</ele>
    <name><![CDATA[Pkg Tramesaygues]]></name>
    <desc><![CDATA[]]></desc>
  </wpt>
  <wpt lat="42.79245" lon="0.28224">
    <ele>1154.2</ele>
    <name><![CDATA[Source Artigues]]></name>
    <desc><![CDATA[]]></desc>
  </wpt>
  <wpt lat="42.78832" lon="0.27511">
    <ele>1297.7</ele>
    <name><![CDATA[Pkg]]></name>
    <desc><![CDATA[]]></desc>
  </wpt>
  <wpt lat="42.7848" lon="0.27333">
    <ele>1429.1</ele>
    <name><![CDATA[Portail]]></name>
    <desc><![CDATA[]]></desc>
  </wpt>
  <wpt lat="42.77812" lon="0.27061">
    <ele>1620.7</ele>
    <name><![CDATA[ruisseau]]></name>
    <desc><![CDATA[]]></desc>
  </wpt>
  <wpt lat="42.77778" lon="0.27038">
    <ele>1635.3</ele>
    <name><![CDATA[abri]]></name>
    <desc><![CDATA[]]></desc>
  </wpt>
  <wpt lat="42.77489" lon="0.26801">
    <ele>1767.5</ele>
    <name><![CDATA[pas de sarroues bas]]></name>
    <desc><![CDATA[]]></desc>
  </wpt>
  <wpt lat="42.77293" lon="0.26697">
    <ele>1895.1</ele>
    <name><![CDATA[Pas de sarroues haut]]></name>
    <desc><![CDATA[]]></desc>
  </wpt>
  <wpt lat="42.77091" lon="0.26611">
    <ele>1985.7</ele>
    <name><![CDATA[K01]]></name>
    <desc><![CDATA[]]></desc>
  </wpt>
  <wpt lat="42.76124" lon="0.26303">
    <ele>2300.3</ele>
    <name><![CDATA[K02]]></name>
    <desc><![CDATA[]]></desc>
  </wpt>
  <wpt lat="42.75082" lon="0.2715">
    <ele>2694</ele>
    <name><![CDATA[col de sarroues]]></name>
    <desc><![CDATA[]]></desc>
  </wpt>
  <wpt lat="42.75168" lon="0.27311">
    <ele>2777.8</ele>
    <name><![CDATA[p 2780]]></name>
    <desc><![CDATA[]]></desc>
  </wpt>
  <wpt lat="42.7539" lon="0.27481">
    <ele>2921.3</ele>
    <name><![CDATA[rocher]]></name>
    <desc><![CDATA[]]></desc>
  </wpt>
  <wpt lat="42.75422" lon="0.27505">
    <ele>2943.7</ele>
    <name><![CDATA[Aret]]></name>
    <desc><![CDATA[]]></desc>
  </wpt>
  <wpt lat="42.75553" lon="0.26214">
    <ele>2442.8</ele>
    <name><![CDATA[K03]]></name>
    <desc><![CDATA[]]></desc>
  </wpt>
  <wpt lat="42.78866" lon="0.27563">
    <ele>1321</ele>
    <name><![CDATA[Barrera]]></name>
    <desc><![CDATA[]]></desc>
  </wpt>
  <trk>
    <name><![CDATA[ARET 2009]]></name>
    <trkseg>
      <trkpt lat="42.79702" lon="0.28837">
        <ele>965.8</ele>
        <time>2009-10-30T06:20:12Z</time>
      </trkpt>
      <trkpt lat="42.79696" lon="0.28838">
        <ele>967.7</ele>
        <time>2009-10-30T06:20:47Z</time>
      </trkpt>
      <trkpt lat="42.79684" lon="0.28839">
        <ele>970.1</ele>
        <time>2009-10-30T06:21:22Z</time>
      </trkpt>
      <trkpt lat="42.79665" lon="0.28851">
        <ele>971.5</ele>
        <time>2009-10-30T06:21:57Z</time>
      </trkpt>
      <trkpt lat="42.79645" lon="0.28857">
        <ele>976.4</ele>
        <time>2009-10-30T06:22:32Z</time>
      </trkpt>
      <trkpt lat="42.79617" lon="0.28873">
        <ele>981.2</ele>
        <time>2009-10-30T06:23:07Z</time>
      </trkpt>
      <trkpt lat="42.79598" lon="0.2889">
        <ele>986</ele>
        <time>2009-10-30T06:23:42Z</time>
      </trkpt>
      <trkpt lat="42.79577" lon="0.28863">
        <ele>992.2</ele>
        <time>2009-10-30T06:24:17Z</time>
      </trkpt>
      <trkpt lat="42.79569" lon="0.28843">
        <ele>997</ele>
        <time>2009-10-30T06:24:52Z</time>
      </trkpt>
      <trkpt lat="42.79558" lon="0.28821">
        <ele>1002.3</ele>
        <time>2009-10-30T06:25:27Z</time>
      </trkpt>
      <trkpt lat="42.79543" lon="0.28805">
        <ele>1008.6</ele>
        <time>2009-10-30T06:26:02Z</time>
      </trkpt>
      <trkpt lat="42.79531" lon="0.28789">
        <ele>1014.8</ele>
        <time>2009-10-30T06:26:37Z</time>
      </trkpt>
      <trkpt lat="42.79519" lon="0.28774">
        <ele>1020.1</ele>
        <time>2009-10-30T06:27:12Z</time>
      </trkpt>
      <trkpt lat="42.79506" lon="0.28758">
        <ele>1024.9</ele>
        <time>2009-10-30T06:27:47Z</time>
      </trkpt>
      <trkpt lat="42.79491" lon="0.28736">
        <ele>1028.7</ele>
        <time>2009-10-30T06:28:22Z</time>
      </trkpt>
      <trkpt lat="42.7948" lon="0.2872">
        <ele>1036</ele>
        <time>2009-10-30T06:28:57Z</time>
      </trkpt>
      <trkpt lat="42.7947" lon="0.28694">
        <ele>1039.3</ele>
        <time>2009-10-30T06:29:32Z</time>
      </trkpt>
      <trkpt lat="42.79463" lon="0.28665">
        <ele>1045.1</ele>
        <time>2009-10-30T06:30:07Z</time>
      </trkpt>
      <trkpt lat="42.79459" lon="0.28636">
        <ele>1049.9</ele>
        <time>2009-10-30T06:30:42Z</time>
      </trkpt>
      <trkpt lat="42.79444" lon="0.28618">
        <ele>1054.7</ele>
        <time>2009-10-30T06:31:17Z</time>
      </trkpt>
      <trkpt lat="42.79434" lon="0.28637">
        <ele>1061</ele>
        <time>2009-10-30T06:31:52Z</time>
      </trkpt>
      <trkpt lat="42.79426" lon="0.28658">
        <ele>1066.2</ele>
        <time>2009-10-30T06:32:27Z</time>
      </trkpt>
      <trkpt lat="42.79422" lon="0.2868">
        <ele>1070.1</ele>
        <time>2009-10-30T06:33:02Z</time>
      </trkpt>
      <trkpt lat="42.79414" lon="0.28703">
        <ele>1077.3</ele>
        <time>2009-10-30T06:33:37Z</time>
      </trkpt>
      <trkpt lat="42.79407" lon="0.28724">
        <ele>1081.6</ele>
        <time>2009-10-30T06:34:12Z</time>
      </trkpt>
      <trkpt lat="42.79396" lon="0.2874">
        <ele>1087.9</ele>
        <time>2009-10-30T06:34:47Z</time>
      </trkpt>
      <trkpt lat="42.7939" lon="0.287">
        <ele>1093.2</ele>
        <time>2009-10-30T06:35:22Z</time>
      </trkpt>
      <trkpt lat="42.79385" lon="0.28669">
        <ele>1094.1</ele>
        <time>2009-10-30T06:35:57Z</time>
      </trkpt>
      <trkpt lat="42.79379" lon="0.28646">
        <ele>1100.4</ele>
        <time>2009-10-30T06:36:32Z</time>
      </trkpt>
      <trkpt lat="42.7937" lon="0.28617">
        <ele>1104.7</ele>
        <time>2009-10-30T06:37:07Z</time>
      </trkpt>
      <trkpt lat="42.79365" lon="0.28591">
        <ele>1110</ele>
        <time>2009-10-30T06:37:42Z</time>
      </trkpt>
      <trkpt lat="42.79366" lon="0.28566">
        <ele>1115.7</ele>
        <time>2009-10-30T06:38:17Z</time>
      </trkpt>
      <trkpt lat="42.79359" lon="0.28557">
        <ele>1118.6</ele>
        <time>2009-10-30T06:38:52Z</time>
      </trkpt>
      <trkpt lat="42.79357" lon="0.28551">
        <ele>1118.6</ele>
        <time>2009-10-30T06:39:27Z</time>
      </trkpt>
      <trkpt lat="42.79345" lon="0.2853">
        <ele>1123.9</ele>
        <time>2009-10-30T06:40:02Z</time>
      </trkpt>
      <trkpt lat="42.79334" lon="0.28503">
        <ele>1126.8</ele>
        <time>2009-10-30T06:40:37Z</time>
      </trkpt>
      <trkpt lat="42.79336" lon="0.28496">
        <ele>1125.8</ele>
        <time>2009-10-30T06:41:12Z</time>
      </trkpt>
      <trkpt lat="42.79329" lon="0.28465">
        <ele>1129.7</ele>
        <time>2009-10-30T06:41:47Z</time>
      </trkpt>
      <trkpt lat="42.79324" lon="0.28448">
        <ele>1130.2</ele>
        <time>2009-10-30T06:42:22Z</time>
      </trkpt>
      <trkpt lat="42.79317" lon="0.28411">
        <ele>1135.9</ele>
        <time>2009-10-30T06:42:57Z</time>
      </trkpt>
      <trkpt lat="42.79321" lon="0.28395">
        <ele>1137.9</ele>
        <time>2009-10-30T06:43:32Z</time>
      </trkpt>
      <trkpt lat="42.79312" lon="0.28353">
        <ele>1140.3</ele>
        <time>2009-10-30T06:44:07Z</time>
      </trkpt>
      <trkpt lat="42.79302" lon="0.28329">
        <ele>1141.2</ele>
        <time>2009-10-30T06:44:42Z</time>
      </trkpt>
      <trkpt lat="42.79298" lon="0.28309">
        <ele>1143.6</ele>
        <time>2009-10-30T06:45:17Z</time>
      </trkpt>
      <trkpt lat="42.79289" lon="0.28283">
        <ele>1145.1</ele>
        <time>2009-10-30T06:45:52Z</time>
      </trkpt>
      <trkpt lat="42.79285" lon="0.28251">
        <ele>1146</ele>
        <time>2009-10-30T06:46:27Z</time>
      </trkpt>
      <trkpt lat="42.79268" lon="0.28224">
        <ele>1149.9</ele>
        <time>2009-10-30T06:47:02Z</time>
      </trkpt>
      <trkpt lat="42.79245" lon="0.28224">
        <ele>1154.7</ele>
        <time>2009-10-30T06:47:37Z</time>
      </trkpt>
      <trkpt lat="42.79243" lon="0.28219">
        <ele>1155.2</ele>
        <time>2009-10-30T06:48:12Z</time>
      </trkpt>
      <trkpt lat="42.79224" lon="0.28213">
        <ele>1159</ele>
        <time>2009-10-30T06:48:47Z</time>
      </trkpt>
      <trkpt lat="42.79209" lon="0.28205">
        <ele>1161.4</ele>
        <time>2009-10-30T06:49:22Z</time>
      </trkpt>
      <trkpt lat="42.79193" lon="0.28183">
        <ele>1167.7</ele>
        <time>2009-10-30T06:49:57Z</time>
      </trkpt>
      <trkpt lat="42.79185" lon="0.28168">
        <ele>1167.2</ele>
        <time>2009-10-30T06:50:32Z</time>
      </trkpt>
      <trkpt lat="42.79187" lon="0.28169">
        <ele>1167.7</ele>
        <time>2009-10-30T06:51:07Z</time>
      </trkpt>
      <trkpt lat="42.79173" lon="0.28154">
        <ele>1173.4</ele>
        <time>2009-10-30T06:51:42Z</time>
      </trkpt>
      <trkpt lat="42.79165" lon="0.2812">
        <ele>1180.6</ele>
        <time>2009-10-30T06:52:17Z</time>
      </trkpt>
      <trkpt lat="42.79157" lon="0.2812">
        <ele>1182.1</ele>
        <time>2009-10-30T06:52:52Z</time>
      </trkpt>
      <trkpt lat="42.79146" lon="0.28129">
        <ele>1186.4</ele>
        <time>2009-10-30T06:53:27Z</time>
      </trkpt>
      <trkpt lat="42.79151" lon="0.28089">
        <ele>1189.3</ele>
        <time>2009-10-30T06:54:02Z</time>
      </trkpt>
      <trkpt lat="42.79156" lon="0.28072">
        <ele>1190.2</ele>
        <time>2009-10-30T06:54:37Z</time>
      </trkpt>
      <trkpt lat="42.79145" lon="0.28048">
        <ele>1197.9</ele>
        <time>2009-10-30T06:55:12Z</time>
      </trkpt>
      <trkpt lat="42.79138" lon="0.28025">
        <ele>1204.2</ele>
        <time>2009-10-30T06:55:47Z</time>
      </trkpt>
      <trkpt lat="42.79137" lon="0.28009">
        <ele>1207.1</ele>
        <time>2009-10-30T06:56:22Z</time>
      </trkpt>
      <trkpt lat="42.79143" lon="0.27982">
        <ele>1214.8</ele>
        <time>2009-10-30T06:56:57Z</time>
      </trkpt>
      <trkpt lat="42.79144" lon="0.27952">
        <ele>1221</ele>
        <time>2009-10-30T06:57:32Z</time>
      </trkpt>
      <trkpt lat="42.7914" lon="0.27934">
        <ele>1223.9</ele>
        <time>2009-10-30T06:58:07Z</time>
      </trkpt>
      <trkpt lat="42.79127" lon="0.27905">
        <ele>1230.6</ele>
        <time>2009-10-30T06:58:42Z</time>
      </trkpt>
      <trkpt lat="42.79109" lon="0.2789">
        <ele>1234</ele>
        <time>2009-10-30T06:59:17Z</time>
      </trkpt>
      <trkpt lat="42.79097" lon="0.27868">
        <ele>1238.8</ele>
        <time>2009-10-30T06:59:52Z</time>
      </trkpt>
      <trkpt lat="42.79081" lon="0.27844">
        <ele>1245.5</ele>
        <time>2009-10-30T07:00:27Z</time>
      </trkpt>
      <trkpt lat="42.79065" lon="0.27822">
        <ele>1250.3</ele>
        <time>2009-10-30T07:01:02Z</time>
      </trkpt>
      <trkpt lat="42.79044" lon="0.27802">
        <ele>1255.6</ele>
        <time>2009-10-30T07:01:37Z</time>
      </trkpt>
      <trkpt lat="42.79026" lon="0.2779">
        <ele>1259.5</ele>
        <time>2009-10-30T07:02:12Z</time>
      </trkpt>
      <trkpt lat="42.79008" lon="0.27773">
        <ele>1260.9</ele>
        <time>2009-10-30T07:02:47Z</time>
      </trkpt>
      <trkpt lat="42.78984" lon="0.27758">
        <ele>1266.7</ele>
        <time>2009-10-30T07:03:22Z</time>
      </trkpt>
      <trkpt lat="42.78964" lon="0.27744">
        <ele>1272</ele>
        <time>2009-10-30T07:03:57Z</time>
      </trkpt>
      <trkpt lat="42.78949" lon="0.27734">
        <ele>1277.2</ele>
        <time>2009-10-30T07:04:32Z</time>
      </trkpt>
      <trkpt lat="42.78937" lon="0.27699">
        <ele>1280.1</ele>
        <time>2009-10-30T07:05:07Z</time>
      </trkpt>
      <trkpt lat="42.78919" lon="0.27654">
        <ele>1284</ele>
        <time>2009-10-30T07:05:42Z</time>
      </trkpt>
      <trkpt lat="42.78904" lon="0.27605">
        <ele>1286.9</ele>
        <time>2009-10-30T07:06:17Z</time>
      </trkpt>
      <trkpt lat="42.78883" lon="0.27567">
        <ele>1291.7</ele>
        <time>2009-10-30T07:06:52Z</time>
      </trkpt>
      <trkpt lat="42.78866" lon="0.27549">
        <ele>1293.1</ele>
        <time>2009-10-30T07:07:27Z</time>
      </trkpt>
      <trkpt lat="42.78865" lon="0.2756">
        <ele>1297</ele>
        <time>2009-10-30T07:08:02Z</time>
      </trkpt>
      <trkpt lat="42.78868" lon="0.27576">
        <ele>1299.8</ele>
        <time>2009-10-30T07:08:37Z</time>
      </trkpt>
      <trkpt lat="42.78808" lon="0.27533">
        <ele>1313.3</ele>
        <time>2009-10-30T07:11:15Z</time>
      </trkpt>
      <trkpt lat="42.78795" lon="0.27524">
        <ele>1322.9</ele>
        <time>2009-10-30T07:11:53Z</time>
      </trkpt>
      <trkpt lat="42.78781" lon="0.27518">
        <ele>1327.2</ele>
        <time>2009-10-30T07:12:28Z</time>
      </trkpt>
      <trkpt lat="42.78773" lon="0.27513">
        <ele>1332.5</ele>
        <time>2009-10-30T07:12:52Z</time>
      </trkpt>
      <trkpt lat="42.78769" lon="0.27513">
        <ele>1335.9</ele>
        <time>2009-10-30T07:13:03Z</time>
      </trkpt>
      <trkpt lat="42.78717" lon="0.27489">
        <ele>1357</ele>
        <time>2009-10-30T07:15:16Z</time>
      </trkpt>
      <trkpt lat="42.78704" lon="0.27488">
        <ele>1358</ele>
        <time>2009-10-30T07:15:46Z</time>
      </trkpt>
      <trkpt lat="42.7869" lon="0.27483">
        <ele>1364.7</ele>
        <time>2009-10-30T07:16:22Z</time>
      </trkpt>
      <trkpt lat="42.78674" lon="0.27489">
        <ele>1372.9</ele>
        <time>2009-10-30T07:17:02Z</time>
      </trkpt>
      <trkpt lat="42.78659" lon="0.27483">
        <ele>1374.3</ele>
        <time>2009-10-30T07:17:39Z</time>
      </trkpt>
      <trkpt lat="42.78643" lon="0.27475">
        <ele>1380.6</ele>
        <time>2009-10-30T07:18:21Z</time>
      </trkpt>
      <trkpt lat="42.78628" lon="0.2747">
        <ele>1385.9</ele>
        <time>2009-10-30T07:18:58Z</time>
      </trkpt>
      <trkpt lat="42.78618" lon="0.27465">
        <ele>1390.7</ele>
        <time>2009-10-30T07:19:24Z</time>
      </trkpt>
      <trkpt lat="42.78608" lon="0.27444">
        <ele>1396.9</ele>
        <time>2009-10-30T07:20:08Z</time>
      </trkpt>
      <trkpt lat="42.78596" lon="0.27424">
        <ele>1407.5</ele>
        <time>2009-10-30T07:20:56Z</time>
      </trkpt>
      <trkpt lat="42.78578" lon="0.27417">
        <ele>1412.3</ele>
        <time>2009-10-30T07:21:42Z</time>
      </trkpt>
      <trkpt lat="42.78559" lon="0.27402">
        <ele>1417.6</ele>
        <time>2009-10-30T07:22:34Z</time>
      </trkpt>
      <trkpt lat="42.78527" lon="0.27382">
        <ele>1422.9</ele>
        <time>2009-10-30T07:23:54Z</time>
      </trkpt>
      <trkpt lat="42.78501" lon="0.27354">
        <ele>1426.7</ele>
        <time>2009-10-30T07:25:11Z</time>
      </trkpt>
      <trkpt lat="42.7848" lon="0.27333">
        <ele>1429.6</ele>
        <time>2009-10-30T07:26:11Z</time>
      </trkpt>
      <trkpt lat="42.78468" lon="0.27319">
        <ele>1435.9</ele>
        <time>2009-10-30T07:26:49Z</time>
      </trkpt>
      <trkpt lat="42.78445" lon="0.27311">
        <ele>1442.1</ele>
        <time>2009-10-30T07:27:46Z</time>
      </trkpt>
      <trkpt lat="42.78429" lon="0.27304">
        <ele>1448.8</ele>
        <time>2009-10-30T07:28:27Z</time>
      </trkpt>
      <trkpt lat="42.78416" lon="0.27289">
        <ele>1454.6</ele>
        <time>2009-10-30T07:29:09Z</time>
      </trkpt>
      <trkpt lat="42.78402" lon="0.27281">
        <ele>1460.4</ele>
        <time>2009-10-30T07:29:44Z</time>
      </trkpt>
      <trkpt lat="42.78389" lon="0.27277">
        <ele>1468.1</ele>
        <time>2009-10-30T07:30:19Z</time>
      </trkpt>
      <trkpt lat="42.78374" lon="0.27267">
        <ele>1474.3</ele>
        <time>2009-10-30T07:30:58Z</time>
      </trkpt>
      <trkpt lat="42.78368" lon="0.27264">
        <ele>1476.7</ele>
        <time>2009-10-30T07:31:15Z</time>
      </trkpt>
      <trkpt lat="42.78354" lon="0.27255">
        <ele>1483</ele>
        <time>2009-10-30T07:31:52Z</time>
      </trkpt>
      <trkpt lat="42.78339" lon="0.27249">
        <ele>1488.7</ele>
        <time>2009-10-30T07:32:30Z</time>
      </trkpt>
      <trkpt lat="42.78327" lon="0.27245">
        <ele>1494</ele>
        <time>2009-10-30T07:33:01Z</time>
      </trkpt>
      <trkpt lat="42.78312" lon="0.2724">
        <ele>1498.8</ele>
        <time>2009-10-30T07:33:38Z</time>
      </trkpt>
      <trkpt lat="42.78295" lon="0.27232">
        <ele>1505.6</ele>
        <time>2009-10-30T07:34:21Z</time>
      </trkpt>
      <trkpt lat="42.78276" lon="0.27221">
        <ele>1509.9</ele>
        <time>2009-10-30T07:35:11Z</time>
      </trkpt>
      <trkpt lat="42.78257" lon="0.27211">
        <ele>1517.1</ele>
        <time>2009-10-30T07:36:00Z</time>
      </trkpt>
      <trkpt lat="42.78246" lon="0.27207">
        <ele>1522.9</ele>
        <time>2009-10-30T07:36:28Z</time>
      </trkpt>
      <trkpt lat="42.78227" lon="0.27206">
        <ele>1528.6</ele>
        <time>2009-10-30T07:37:12Z</time>
      </trkpt>
      <trkpt lat="42.78217" lon="0.27207">
        <ele>1530.1</ele>
        <time>2009-10-30T07:37:35Z</time>
      </trkpt>
      <trkpt lat="42.78207" lon="0.27221">
        <ele>1536.8</ele>
        <time>2009-10-30T07:38:12Z</time>
      </trkpt>
      <trkpt lat="42.78185" lon="0.27226">
        <ele>1540.6</ele>
        <time>2009-10-30T07:39:03Z</time>
      </trkpt>
      <trkpt lat="42.78175" lon="0.27223">
        <ele>1544.5</ele>
        <time>2009-10-30T07:39:28Z</time>
      </trkpt>
      <trkpt lat="42.78159" lon="0.27233">
        <ele>1549.3</ele>
        <time>2009-10-30T07:40:10Z</time>
      </trkpt>
      <trkpt lat="42.78139" lon="0.27238">
        <ele>1554.1</ele>
        <time>2009-10-30T07:40:56Z</time>
      </trkpt>
      <trkpt lat="42.78121" lon="0.27249">
        <ele>1560.8</ele>
        <time>2009-10-30T07:41:45Z</time>
      </trkpt>
      <trkpt lat="42.781" lon="0.27249">
        <ele>1564.2</ele>
        <time>2009-10-30T07:42:33Z</time>
      </trkpt>
      <trkpt lat="42.78082" lon="0.27235">
        <ele>1570</ele>
        <time>2009-10-30T07:43:22Z</time>
      </trkpt>
      <trkpt lat="42.7807" lon="0.27228">
        <ele>1576.2</ele>
        <time>2009-10-30T07:43:55Z</time>
      </trkpt>
      <trkpt lat="42.78056" lon="0.27216">
        <ele>1582</ele>
        <time>2009-10-30T07:44:34Z</time>
      </trkpt>
      <trkpt lat="42.78037" lon="0.27198">
        <ele>1584.9</ele>
        <time>2009-10-30T07:45:28Z</time>
      </trkpt>
      <trkpt lat="42.78011" lon="0.27184">
        <ele>1589.2</ele>
        <time>2009-10-30T07:46:33Z</time>
      </trkpt>
      <trkpt lat="42.77996" lon="0.27171">
        <ele>1594.5</ele>
        <time>2009-10-30T07:47:15Z</time>
      </trkpt>
      <trkpt lat="42.77972" lon="0.27163">
        <ele>1597.4</ele>
        <time>2009-10-30T07:48:14Z</time>
      </trkpt>
      <trkpt lat="42.77948" lon="0.27145">
        <ele>1600.7</ele>
        <time>2009-10-30T07:49:16Z</time>
      </trkpt>
      <trkpt lat="42.77927" lon="0.27122">
        <ele>1604.1</ele>
        <time>2009-10-30T07:50:17Z</time>
      </trkpt>
      <trkpt lat="42.77903" lon="0.2711">
        <ele>1609.4</ele>
        <time>2009-10-30T07:51:18Z</time>
      </trkpt>
      <trkpt lat="42.77882" lon="0.27102">
        <ele>1616.1</ele>
        <time>2009-10-30T07:52:11Z</time>
      </trkpt>
      <trkpt lat="42.77852" lon="0.27086">
        <ele>1617.1</ele>
        <time>2009-10-30T07:53:24Z</time>
      </trkpt>
      <trkpt lat="42.77825" lon="0.27081">
        <ele>1620</ele>
        <time>2009-10-30T07:54:28Z</time>
      </trkpt>
      <trkpt lat="42.77812" lon="0.27063">
        <ele>1620.4</ele>
        <time>2009-10-30T07:55:11Z</time>
      </trkpt>
      <trkpt lat="42.77812" lon="0.27042">
        <ele>1624.8</ele>
        <time>2009-10-30T07:55:47Z</time>
      </trkpt>
      <trkpt lat="42.77795" lon="0.27025">
        <ele>1630.1</ele>
        <time>2009-10-30T07:56:36Z</time>
      </trkpt>
      <trkpt lat="42.77775" lon="0.27037">
        <ele>1635.3</ele>
        <time>2009-10-30T07:57:28Z</time>
      </trkpt>
      <trkpt lat="42.77779" lon="0.27039">
        <ele>1634.9</ele>
        <time>2009-10-30T07:57:37Z</time>
      </trkpt>
      <trkpt lat="42.77766" lon="0.27032">
        <ele>1641.1</ele>
        <time>2009-10-30T07:58:10Z</time>
      </trkpt>
      <trkpt lat="42.77749" lon="0.27027">
        <ele>1647.4</ele>
        <time>2009-10-30T07:58:53Z</time>
      </trkpt>
      <trkpt lat="42.77739" lon="0.27017">
        <ele>1653.6</ele>
        <time>2009-10-30T07:59:24Z</time>
      </trkpt>
      <trkpt lat="42.77736" lon="0.27001">
        <ele>1657.9</ele>
        <time>2009-10-30T07:59:53Z</time>
      </trkpt>
      <trkpt lat="42.77724" lon="0.26993">
        <ele>1663.2</ele>
        <time>2009-10-30T08:00:24Z</time>
      </trkpt>
      <trkpt lat="42.7771" lon="0.26984">
        <ele>1669.5</ele>
        <time>2009-10-30T08:01:02Z</time>
      </trkpt>
      <trkpt lat="42.77703" lon="0.26973">
        <ele>1676.2</ele>
        <time>2009-10-30T08:01:31Z</time>
      </trkpt>
      <trkpt lat="42.77696" lon="0.2696">
        <ele>1681</ele>
        <time>2009-10-30T08:02:01Z</time>
      </trkpt>
      <trkpt lat="42.77681" lon="0.26954">
        <ele>1687.7</ele>
        <time>2009-10-30T08:02:38Z</time>
      </trkpt>
      <trkpt lat="42.77675" lon="0.26948">
        <ele>1690.1</ele>
        <time>2009-10-30T08:02:56Z</time>
      </trkpt>
      <trkpt lat="42.77662" lon="0.26937">
        <ele>1693.5</ele>
        <time>2009-10-30T08:03:32Z</time>
      </trkpt>
      <trkpt lat="42.77652" lon="0.26923">
        <ele>1699.3</ele>
        <time>2009-10-30T08:04:08Z</time>
      </trkpt>
      <trkpt lat="42.77633" lon="0.26912">
        <ele>1705</ele>
        <time>2009-10-30T08:04:55Z</time>
      </trkpt>
      <trkpt lat="42.77617" lon="0.26901">
        <ele>1712.2</ele>
        <time>2009-10-30T08:05:41Z</time>
      </trkpt>
      <trkpt lat="42.77609" lon="0.26896">
        <ele>1713.7</ele>
        <time>2009-10-30T08:06:02Z</time>
      </trkpt>
      <trkpt lat="42.77599" lon="0.2689">
        <ele>1717.5</ele>
        <time>2009-10-30T08:06:28Z</time>
      </trkpt>
      <trkpt lat="42.77576" lon="0.26873">
        <ele>1722.3</ele>
        <time>2009-10-30T08:07:27Z</time>
      </trkpt>
      <trkpt lat="42.77556" lon="0.26865">
        <ele>1730.5</ele>
        <time>2009-10-30T08:08:18Z</time>
      </trkpt>
      <trkpt lat="42.7754" lon="0.26852">
        <ele>1736.8</ele>
        <time>2009-10-30T08:09:02Z</time>
      </trkpt>
      <trkpt lat="42.77524" lon="0.2684">
        <ele>1741.6</ele>
        <time>2009-10-30T08:09:47Z</time>
      </trkpt>
      <trkpt lat="42.77509" lon="0.26829">
        <ele>1747.8</ele>
        <time>2009-10-30T08:10:27Z</time>
      </trkpt>
      <trkpt lat="42.77495" lon="0.26825">
        <ele>1754.5</ele>
        <time>2009-10-30T08:11:04Z</time>
      </trkpt>
      <trkpt lat="42.77485" lon="0.26816">
        <ele>1761.8</ele>
        <time>2009-10-30T08:11:35Z</time>
      </trkpt>
      <trkpt lat="42.77489" lon="0.26801">
        <ele>1767.5</ele>
        <time>2009-10-30T08:12:04Z</time>
      </trkpt>
      <trkpt lat="42.77488" lon="0.26794">
        <ele>1770.9</ele>
        <time>2009-10-30T08:12:18Z</time>
      </trkpt>
      <trkpt lat="42.77477" lon="0.26791">
        <ele>1777.1</ele>
        <time>2009-10-30T08:12:46Z</time>
      </trkpt>
      <trkpt lat="42.77487" lon="0.2678">
        <ele>1780</ele>
        <time>2009-10-30T08:13:15Z</time>
      </trkpt>
      <trkpt lat="42.77477" lon="0.26767">
        <ele>1786.7</ele>
        <time>2009-10-30T08:13:49Z</time>
      </trkpt>
      <trkpt lat="42.77474" lon="0.26759">
        <ele>1792</ele>
        <time>2009-10-30T08:14:08Z</time>
      </trkpt>
      <trkpt lat="42.77474" lon="0.26755">
        <ele>1793.5</ele>
        <time>2009-10-30T08:14:16Z</time>
      </trkpt>
      <trkpt lat="42.77471" lon="0.26756">
        <ele>1794.4</ele>
        <time>2009-10-30T08:14:23Z</time>
      </trkpt>
      <trkpt lat="42.77471" lon="0.26756">
        <ele>1794.4</ele>
        <time>2009-10-30T08:14:24Z</time>
      </trkpt>
      <trkpt lat="42.7747" lon="0.26756">
        <ele>1794.4</ele>
        <time>2009-10-30T08:14:25Z</time>
      </trkpt>
      <trkpt lat="42.77463" lon="0.26759">
        <ele>1798.3</ele>
        <time>2009-10-30T08:14:45Z</time>
      </trkpt>
      <trkpt lat="42.7745" lon="0.26764">
        <ele>1805</ele>
        <time>2009-10-30T08:15:20Z</time>
      </trkpt>
      <trkpt lat="42.77439" lon="0.26761">
        <ele>1810.8</ele>
        <time>2009-10-30T08:15:46Z</time>
      </trkpt>
      <trkpt lat="42.7742" lon="0.26764">
        <ele>1815.1</ele>
        <time>2009-10-30T08:16:31Z</time>
      </trkpt>
      <trkpt lat="42.77402" lon="0.2676">
        <ele>1822.8</ele>
        <time>2009-10-30T08:17:16Z</time>
      </trkpt>
      <trkpt lat="42.77406" lon="0.26746">
        <ele>1828.6</ele>
        <time>2009-10-30T08:17:44Z</time>
      </trkpt>
      <trkpt lat="42.77393" lon="0.26741">
        <ele>1833.4</ele>
        <time>2009-10-30T08:18:16Z</time>
      </trkpt>
      <trkpt lat="42.77386" lon="0.26731">
        <ele>1839.6</ele>
        <time>2009-10-30T08:18:43Z</time>
      </trkpt>
      <trkpt lat="42.77392" lon="0.2672">
        <ele>1846.8</ele>
        <time>2009-10-30T08:19:12Z</time>
      </trkpt>
      <trkpt lat="42.7739" lon="0.26709">
        <ele>1850.7</ele>
        <time>2009-10-30T08:19:31Z</time>
      </trkpt>
      <trkpt lat="42.77386" lon="0.26705">
        <ele>1855</ele>
        <time>2009-10-30T08:19:46Z</time>
      </trkpt>
      <trkpt lat="42.77381" lon="0.26704">
        <ele>1857.9</ele>
        <time>2009-10-30T08:20:01Z</time>
      </trkpt>
      <trkpt lat="42.77381" lon="0.26704">
        <ele>1857.4</ele>
        <time>2009-10-30T08:20:02Z</time>
      </trkpt>
      <trkpt lat="42.77367" lon="0.26697">
        <ele>1865.1</ele>
        <time>2009-10-30T08:20:39Z</time>
      </trkpt>
      <trkpt lat="42.77355" lon="0.26691">
        <ele>1870.9</ele>
        <time>2009-10-30T08:21:11Z</time>
      </trkpt>
      <trkpt lat="42.77343" lon="0.26695">
        <ele>1877.6</ele>
        <time>2009-10-30T08:21:43Z</time>
      </trkpt>
      <trkpt lat="42.77326" lon="0.26695">
        <ele>1883.4</ele>
        <time>2009-10-30T08:22:23Z</time>
      </trkpt>
      <trkpt lat="42.7731" lon="0.26696">
        <ele>1890.1</ele>
        <time>2009-10-30T08:23:03Z</time>
      </trkpt>
      <trkpt lat="42.77295" lon="0.26699">
        <ele>1894.4</ele>
        <time>2009-10-30T08:23:39Z</time>
      </trkpt>
      <trkpt lat="42.77284" lon="0.26695">
        <ele>1896.8</ele>
        <time>2009-10-30T08:24:05Z</time>
      </trkpt>
      <trkpt lat="42.77264" lon="0.26687">
        <ele>1902.6</ele>
        <time>2009-10-30T08:24:55Z</time>
      </trkpt>
      <trkpt lat="42.77249" lon="0.26684">
        <ele>1910.8</ele>
        <time>2009-10-30T08:25:33Z</time>
      </trkpt>
      <trkpt lat="42.77237" lon="0.26679">
        <ele>1917.5</ele>
        <time>2009-10-30T08:26:05Z</time>
      </trkpt>
      <trkpt lat="42.77225" lon="0.26668">
        <ele>1921.3</ele>
        <time>2009-10-30T08:26:39Z</time>
      </trkpt>
      <trkpt lat="42.77211" lon="0.26661">
        <ele>1926.1</ele>
        <time>2009-10-30T08:27:14Z</time>
      </trkpt>
      <trkpt lat="42.77197" lon="0.26657">
        <ele>1932.9</ele>
        <time>2009-10-30T08:27:51Z</time>
      </trkpt>
      <trkpt lat="42.77185" lon="0.26666">
        <ele>1938.6</ele>
        <time>2009-10-30T08:28:25Z</time>
      </trkpt>
      <trkpt lat="42.77172" lon="0.26682">
        <ele>1944.9</ele>
        <time>2009-10-30T08:29:06Z</time>
      </trkpt>
      <trkpt lat="42.77164" lon="0.26681">
        <ele>1949.2</ele>
        <time>2009-10-30T08:29:27Z</time>
      </trkpt>
      <trkpt lat="42.77162" lon="0.2666">
        <ele>1955.5</ele>
        <time>2009-10-30T08:30:05Z</time>
      </trkpt>
      <trkpt lat="42.77156" lon="0.26637">
        <ele>1960.3</ele>
        <time>2009-10-30T08:30:47Z</time>
      </trkpt>
      <trkpt lat="42.77155" lon="0.26618">
        <ele>1968</ele>
        <time>2009-10-30T08:31:22Z</time>
      </trkpt>
      <trkpt lat="42.77155" lon="0.26604">
        <ele>1971.8</ele>
        <time>2009-10-30T08:31:47Z</time>
      </trkpt>
      <trkpt lat="42.77142" lon="0.26598">
        <ele>1977.6</ele>
        <time>2009-10-30T08:32:21Z</time>
      </trkpt>
      <trkpt lat="42.77123" lon="0.266">
        <ele>1983.3</ele>
        <time>2009-10-30T08:33:05Z</time>
      </trkpt>
      <trkpt lat="42.77113" lon="0.26607">
        <ele>1987.2</ele>
        <time>2009-10-30T08:33:33Z</time>
      </trkpt>
      <trkpt lat="42.77107" lon="0.26611">
        <ele>1987.2</ele>
        <time>2009-10-30T08:33:47Z</time>
      </trkpt>
      <trkpt lat="42.77105" lon="0.26604">
        <ele>1989.6</ele>
        <time>2009-10-30T08:34:01Z</time>
      </trkpt>
      <trkpt lat="42.77093" lon="0.26596">
        <ele>1995.4</ele>
        <time>2009-10-30T08:34:34Z</time>
      </trkpt>
      <trkpt lat="42.77091" lon="0.26611">
        <ele>1985.3</ele>
        <time>2009-10-30T08:35:29Z</time>
      </trkpt>
      <trkpt lat="42.77092" lon="0.26589">
        <ele>1984.8</ele>
        <time>2009-10-30T08:35:46Z</time>
      </trkpt>
      <trkpt lat="42.77064" lon="0.26545">
        <ele>2023.2</ele>
        <time>2009-10-30T08:37:54Z</time>
      </trkpt>
      <trkpt lat="42.77044" lon="0.2653">
        <ele>2030</ele>
        <time>2009-10-30T08:38:48Z</time>
      </trkpt>
      <trkpt lat="42.77003" lon="0.26486">
        <ele>2038.6</ele>
        <time>2009-10-30T08:40:51Z</time>
      </trkpt>
      <trkpt lat="42.7699" lon="0.26501">
        <ele>2044.4</ele>
        <time>2009-10-30T08:41:33Z</time>
      </trkpt>
      <trkpt lat="42.76975" lon="0.26501">
        <ele>2049.2</ele>
        <time>2009-10-30T08:42:09Z</time>
      </trkpt>
      <trkpt lat="42.76929" lon="0.26493">
        <ele>2058.3</ele>
        <time>2009-10-30T08:43:59Z</time>
      </trkpt>
      <trkpt lat="42.76916" lon="0.26491">
        <ele>2065.5</ele>
        <time>2009-10-30T08:44:34Z</time>
      </trkpt>
      <trkpt lat="42.76898" lon="0.26489">
        <ele>2071.8</ele>
        <time>2009-10-30T08:45:16Z</time>
      </trkpt>
      <trkpt lat="42.7688" lon="0.26479">
        <ele>2077.1</ele>
        <time>2009-10-30T08:46:03Z</time>
      </trkpt>
      <trkpt lat="42.76863" lon="0.26457">
        <ele>2080.4</ele>
        <time>2009-10-30T08:46:58Z</time>
      </trkpt>
      <trkpt lat="42.76851" lon="0.26439">
        <ele>2088.1</ele>
        <time>2009-10-30T08:47:43Z</time>
      </trkpt>
      <trkpt lat="42.7683" lon="0.26425">
        <ele>2093.4</ele>
        <time>2009-10-30T08:48:39Z</time>
      </trkpt>
      <trkpt lat="42.76816" lon="0.26416">
        <ele>2099.2</ele>
        <time>2009-10-30T08:49:16Z</time>
      </trkpt>
      <trkpt lat="42.76804" lon="0.26405">
        <ele>2103</ele>
        <time>2009-10-30T08:49:50Z</time>
      </trkpt>
      <trkpt lat="42.76801" lon="0.26395">
        <ele>2109.8</ele>
        <time>2009-10-30T08:50:14Z</time>
      </trkpt>
      <trkpt lat="42.76792" lon="0.26385">
        <ele>2117.9</ele>
        <time>2009-10-30T08:50:46Z</time>
      </trkpt>
      <trkpt lat="42.76783" lon="0.2638">
        <ele>2122.2</ele>
        <time>2009-10-30T08:51:10Z</time>
      </trkpt>
      <trkpt lat="42.76769" lon="0.26384">
        <ele>2125.6</ele>
        <time>2009-10-30T08:51:43Z</time>
      </trkpt>
      <trkpt lat="42.7676" lon="0.26377">
        <ele>2130.4</ele>
        <time>2009-10-30T08:52:09Z</time>
      </trkpt>
      <trkpt lat="42.76743" lon="0.26371">
        <ele>2134.7</ele>
        <time>2009-10-30T08:52:51Z</time>
      </trkpt>
      <trkpt lat="42.76722" lon="0.2636">
        <ele>2141</ele>
        <time>2009-10-30T08:53:46Z</time>
      </trkpt>
      <trkpt lat="42.76696" lon="0.26351">
        <ele>2144.8</ele>
        <time>2009-10-30T08:54:47Z</time>
      </trkpt>
      <trkpt lat="42.76676" lon="0.26358">
        <ele>2150.1</ele>
        <time>2009-10-30T08:55:37Z</time>
      </trkpt>
      <trkpt lat="42.76658" lon="0.26361">
        <ele>2155.9</ele>
        <time>2009-10-30T08:56:21Z</time>
      </trkpt>
      <trkpt lat="42.76632" lon="0.26361">
        <ele>2161.2</ele>
        <time>2009-10-30T08:57:21Z</time>
      </trkpt>
      <trkpt lat="42.76618" lon="0.26362">
        <ele>2166</ele>
        <time>2009-10-30T08:57:57Z</time>
      </trkpt>
      <trkpt lat="42.76606" lon="0.26371">
        <ele>2168.4</ele>
        <time>2009-10-30T08:58:27Z</time>
      </trkpt>
      <trkpt lat="42.76593" lon="0.26379">
        <ele>2170.8</ele>
        <time>2009-10-30T08:59:02Z</time>
      </trkpt>
      <trkpt lat="42.76572" lon="0.26382">
        <ele>2177</ele>
        <time>2009-10-30T08:59:53Z</time>
      </trkpt>
      <trkpt lat="42.76554" lon="0.26384">
        <ele>2183.8</ele>
        <time>2009-10-30T09:00:37Z</time>
      </trkpt>
      <trkpt lat="42.76531" lon="0.26383">
        <ele>2187.6</ele>
        <time>2009-10-30T09:01:30Z</time>
      </trkpt>
      <trkpt lat="42.76512" lon="0.26388">
        <ele>2194.8</ele>
        <time>2009-10-30T09:02:17Z</time>
      </trkpt>
      <trkpt lat="42.7649" lon="0.2639">
        <ele>2200.6</ele>
        <time>2009-10-30T09:03:10Z</time>
      </trkpt>
      <trkpt lat="42.76468" lon="0.26396">
        <ele>2205.4</ele>
        <time>2009-10-30T09:04:04Z</time>
      </trkpt>
      <trkpt lat="42.76447" lon="0.26399">
        <ele>2211.7</ele>
        <time>2009-10-30T09:04:55Z</time>
      </trkpt>
      <trkpt lat="42.76425" lon="0.26396">
        <ele>2215.5</ele>
        <time>2009-10-30T09:05:46Z</time>
      </trkpt>
      <trkpt lat="42.76411" lon="0.2639">
        <ele>2219.8</ele>
        <time>2009-10-30T09:06:21Z</time>
      </trkpt>
      <trkpt lat="42.76389" lon="0.26374">
        <ele>2221.3</ele>
        <time>2009-10-30T09:07:21Z</time>
      </trkpt>
      <trkpt lat="42.76378" lon="0.26386">
        <ele>2227</ele>
        <time>2009-10-30T09:07:55Z</time>
      </trkpt>
      <trkpt lat="42.76368" lon="0.2638">
        <ele>2230.9</ele>
        <time>2009-10-30T09:08:22Z</time>
      </trkpt>
      <trkpt lat="42.76353" lon="0.26373">
        <ele>2236.6</ele>
        <time>2009-10-30T09:09:01Z</time>
      </trkpt>
      <trkpt lat="42.76335" lon="0.26366">
        <ele>2241.5</ele>
        <time>2009-10-30T09:09:46Z</time>
      </trkpt>
      <trkpt lat="42.76313" lon="0.2636">
        <ele>2248.7</ele>
        <time>2009-10-30T09:10:41Z</time>
      </trkpt>
      <trkpt lat="42.76291" lon="0.26357">
        <ele>2254.4</ele>
        <time>2009-10-30T09:11:32Z</time>
      </trkpt>
      <trkpt lat="42.7627" lon="0.26358">
        <ele>2258.3</ele>
        <time>2009-10-30T09:12:22Z</time>
      </trkpt>
      <trkpt lat="42.76249" lon="0.26362">
        <ele>2263.1</ele>
        <time>2009-10-30T09:13:12Z</time>
      </trkpt>
      <trkpt lat="42.76226" lon="0.26367">
        <ele>2268.8</ele>
        <time>2009-10-30T09:14:08Z</time>
      </trkpt>
      <trkpt lat="42.76208" lon="0.26366">
        <ele>2273.7</ele>
        <time>2009-10-30T09:14:51Z</time>
      </trkpt>
      <trkpt lat="42.76189" lon="0.26363">
        <ele>2278</ele>
        <time>2009-10-30T09:15:36Z</time>
      </trkpt>
      <trkpt lat="42.76174" lon="0.2636">
        <ele>2280.9</ele>
        <time>2009-10-30T09:16:12Z</time>
      </trkpt>
      <trkpt lat="42.76155" lon="0.2636">
        <ele>2283.7</ele>
        <time>2009-10-30T09:16:55Z</time>
      </trkpt>
      <trkpt lat="42.7614" lon="0.26348">
        <ele>2289.5</ele>
        <time>2009-10-30T09:17:37Z</time>
      </trkpt>
      <trkpt lat="42.76129" lon="0.26333">
        <ele>2296.2</ele>
        <time>2009-10-30T09:18:16Z</time>
      </trkpt>
      <trkpt lat="42.76127" lon="0.26311">
        <ele>2299.1</ele>
        <time>2009-10-30T09:18:56Z</time>
      </trkpt>
      <trkpt lat="42.76121" lon="0.263">
        <ele>2300.6</ele>
        <time>2009-10-30T09:19:18Z</time>
      </trkpt>
      <trkpt lat="42.76099" lon="0.26291">
        <ele>2303.9</ele>
        <time>2009-10-30T09:20:12Z</time>
      </trkpt>
      <trkpt lat="42.76076" lon="0.26303">
        <ele>2308.3</ele>
        <time>2009-10-30T09:21:11Z</time>
      </trkpt>
      <trkpt lat="42.76048" lon="0.263">
        <ele>2309.7</ele>
        <time>2009-10-30T09:22:16Z</time>
      </trkpt>
      <trkpt lat="42.76025" lon="0.26308">
        <ele>2314</ele>
        <time>2009-10-30T09:23:11Z</time>
      </trkpt>
      <trkpt lat="42.76012" lon="0.26313">
        <ele>2316</ele>
        <time>2009-10-30T09:23:42Z</time>
      </trkpt>
      <trkpt lat="42.75992" lon="0.26323">
        <ele>2322.2</ele>
        <time>2009-10-30T09:24:33Z</time>
      </trkpt>
      <trkpt lat="42.7597" lon="0.26324">
        <ele>2325.6</ele>
        <time>2009-10-30T09:25:25Z</time>
      </trkpt>
      <trkpt lat="42.75957" lon="0.26316">
        <ele>2330.9</ele>
        <time>2009-10-30T09:26:01Z</time>
      </trkpt>
      <trkpt lat="42.75937" lon="0.26306">
        <ele>2333.7</ele>
        <time>2009-10-30T09:26:50Z</time>
      </trkpt>
      <trkpt lat="42.75923" lon="0.26299">
        <ele>2336.6</ele>
        <time>2009-10-30T09:27:25Z</time>
      </trkpt>
      <trkpt lat="42.75895" lon="0.26293">
        <ele>2342.4</ele>
        <time>2009-10-30T09:28:32Z</time>
      </trkpt>
      <trkpt lat="42.75871" lon="0.26292">
        <ele>2347.7</ele>
        <time>2009-10-30T09:29:28Z</time>
      </trkpt>
      <trkpt lat="42.75855" lon="0.26289">
        <ele>2352.5</ele>
        <time>2009-10-30T09:30:09Z</time>
      </trkpt>
      <trkpt lat="42.75832" lon="0.26273">
        <ele>2355.8</ele>
        <time>2009-10-30T09:31:09Z</time>
      </trkpt>
      <trkpt lat="42.75811" lon="0.26266">
        <ele>2359.7</ele>
        <time>2009-10-30T09:31:59Z</time>
      </trkpt>
      <trkpt lat="42.75795" lon="0.26261">
        <ele>2366.9</ele>
        <time>2009-10-30T09:32:41Z</time>
      </trkpt>
      <trkpt lat="42.7577" lon="0.26255">
        <ele>2367.4</ele>
        <time>2009-10-30T09:33:40Z</time>
      </trkpt>
      <trkpt lat="42.7574" lon="0.26257">
        <ele>2370.3</ele>
        <time>2009-10-30T09:34:49Z</time>
      </trkpt>
      <trkpt lat="42.75721" lon="0.26264">
        <ele>2374.6</ele>
        <time>2009-10-30T09:35:37Z</time>
      </trkpt>
      <trkpt lat="42.75706" lon="0.26267">
        <ele>2380.8</ele>
        <time>2009-10-30T09:36:14Z</time>
      </trkpt>
      <trkpt lat="42.75689" lon="0.26268">
        <ele>2385.6</ele>
        <time>2009-10-30T09:36:55Z</time>
      </trkpt>
      <trkpt lat="42.75678" lon="0.26266">
        <ele>2390.9</ele>
        <time>2009-10-30T09:37:22Z</time>
      </trkpt>
      <trkpt lat="42.75659" lon="0.2626">
        <ele>2397.2</ele>
        <time>2009-10-30T09:38:10Z</time>
      </trkpt>
      <trkpt lat="42.75647" lon="0.26258">
        <ele>2399.1</ele>
        <time>2009-10-30T09:38:39Z</time>
      </trkpt>
      <trkpt lat="42.75636" lon="0.26254">
        <ele>2406.3</ele>
        <time>2009-10-30T09:39:09Z</time>
      </trkpt>
      <trkpt lat="42.75631" lon="0.26248">
        <ele>2407.8</ele>
        <time>2009-10-30T09:39:25Z</time>
      </trkpt>
      <trkpt lat="42.75622" lon="0.2624">
        <ele>2411.1</ele>
        <time>2009-10-30T09:39:51Z</time>
      </trkpt>
      <trkpt lat="42.75598" lon="0.26233">
        <ele>2411.1</ele>
        <time>2009-10-30T09:40:47Z</time>
      </trkpt>
      <trkpt lat="42.7559" lon="0.26223">
        <ele>2413</ele>
        <time>2009-10-30T09:41:13Z</time>
      </trkpt>
      <trkpt lat="42.75568" lon="0.2621">
        <ele>2418.8</ele>
        <time>2009-10-30T09:42:10Z</time>
      </trkpt>
      <trkpt lat="42.75552" lon="0.26207">
        <ele>2421.2</ele>
        <time>2009-10-30T09:42:48Z</time>
      </trkpt>
      <trkpt lat="42.75548" lon="0.26207">
        <ele>2421.2</ele>
        <time>2009-10-30T09:42:57Z</time>
      </trkpt>
      <trkpt lat="42.75548" lon="0.26208">
        <ele>2419.3</ele>
        <time>2009-10-30T09:43:01Z</time>
      </trkpt>
      <trkpt lat="42.75548" lon="0.26207">
        <ele>2419.8</ele>
        <time>2009-10-30T09:43:03Z</time>
      </trkpt>
      <trkpt lat="42.75552" lon="0.26206">
        <ele>2419.3</ele>
        <time>2009-10-30T09:43:03Z</time>
      </trkpt>
      <trkpt lat="42.75547" lon="0.26205">
        <ele>2427.9</ele>
        <time>2009-10-30T09:43:03Z</time>
      </trkpt>
      <trkpt lat="42.75525" lon="0.26201">
        <ele>2434.2</ele>
        <time>2009-10-30T09:43:57Z</time>
      </trkpt>
      <trkpt lat="42.75506" lon="0.2619">
        <ele>2439.5</ele>
        <time>2009-10-30T09:44:45Z</time>
      </trkpt>
      <trkpt lat="42.7549" lon="0.26182">
        <ele>2443.8</ele>
        <time>2009-10-30T09:45:26Z</time>
      </trkpt>
      <trkpt lat="42.7547" lon="0.26185">
        <ele>2449.1</ele>
        <time>2009-10-30T09:46:14Z</time>
      </trkpt>
      <trkpt lat="42.75465" lon="0.26179">
        <ele>2448.1</ele>
        <time>2009-10-30T09:46:30Z</time>
      </trkpt>
      <trkpt lat="42.75455" lon="0.26174">
        <ele>2454.9</ele>
        <time>2009-10-30T09:46:59Z</time>
      </trkpt>
      <trkpt lat="42.75436" lon="0.26167">
        <ele>2457.3</ele>
        <time>2009-10-30T09:47:44Z</time>
      </trkpt>
      <trkpt lat="42.75423" lon="0.26161">
        <ele>2463</ele>
        <time>2009-10-30T09:48:18Z</time>
      </trkpt>
      <trkpt lat="42.75411" lon="0.26154">
        <ele>2467.4</ele>
        <time>2009-10-30T09:48:50Z</time>
      </trkpt>
      <trkpt lat="42.75396" lon="0.26152">
        <ele>2469.3</ele>
        <time>2009-10-30T09:49:26Z</time>
      </trkpt>
      <trkpt lat="42.75392" lon="0.26161">
        <ele>2471.7</ele>
        <time>2009-10-30T09:49:45Z</time>
      </trkpt>
      <trkpt lat="42.75392" lon="0.26162">
        <ele>2472.6</ele>
        <time>2009-10-30T09:49:48Z</time>
      </trkpt>
      <trkpt lat="42.7539" lon="0.26165">
        <ele>2474.1</ele>
        <time>2009-10-30T09:49:56Z</time>
      </trkpt>
      <trkpt lat="42.75385" lon="0.26168">
        <ele>2477</ele>
        <time>2009-10-30T09:50:08Z</time>
      </trkpt>
      <trkpt lat="42.75378" lon="0.26173">
        <ele>2482.7</ele>
        <time>2009-10-30T09:50:31Z</time>
      </trkpt>
      <trkpt lat="42.75377" lon="0.26183">
        <ele>2486.6</ele>
        <time>2009-10-30T09:50:50Z</time>
      </trkpt>
      <trkpt lat="42.75363" lon="0.2619">
        <ele>2490.9</ele>
        <time>2009-10-30T09:51:25Z</time>
      </trkpt>
      <trkpt lat="42.75362" lon="0.262">
        <ele>2495.2</ele>
        <time>2009-10-30T09:51:44Z</time>
      </trkpt>
      <trkpt lat="42.75362" lon="0.26212">
        <ele>2500.5</ele>
        <time>2009-10-30T09:52:08Z</time>
      </trkpt>
      <trkpt lat="42.75355" lon="0.26223">
        <ele>2505.3</ele>
        <time>2009-10-30T09:52:34Z</time>
      </trkpt>
      <trkpt lat="42.75353" lon="0.26228">
        <ele>2507.3</ele>
        <time>2009-10-30T09:52:44Z</time>
      </trkpt>
      <trkpt lat="42.75349" lon="0.26241">
        <ele>2512.5</ele>
        <time>2009-10-30T09:53:11Z</time>
      </trkpt>
      <trkpt lat="42.75345" lon="0.26254">
        <ele>2517.8</ele>
        <time>2009-10-30T09:53:37Z</time>
      </trkpt>
      <trkpt lat="42.75337" lon="0.2627">
        <ele>2522.2</ele>
        <time>2009-10-30T09:54:11Z</time>
      </trkpt>
      <trkpt lat="42.75332" lon="0.26283">
        <ele>2526</ele>
        <time>2009-10-30T09:54:37Z</time>
      </trkpt>
      <trkpt lat="42.75323" lon="0.26294">
        <ele>2530.3</ele>
        <time>2009-10-30T09:55:07Z</time>
      </trkpt>
      <trkpt lat="42.75315" lon="0.26308">
        <ele>2535.6</ele>
        <time>2009-10-30T09:55:38Z</time>
      </trkpt>
      <trkpt lat="42.75313" lon="0.26325">
        <ele>2541.9</ele>
        <time>2009-10-30T09:56:11Z</time>
      </trkpt>
      <trkpt lat="42.75317" lon="0.26341">
        <ele>2545.7</ele>
        <time>2009-10-30T09:56:40Z</time>
      </trkpt>
      <trkpt lat="42.75318" lon="0.26343">
        <ele>2547.2</ele>
        <time>2009-10-30T09:56:46Z</time>
      </trkpt>
      <trkpt lat="42.75313" lon="0.26349">
        <ele>2548.6</ele>
        <time>2009-10-30T09:57:02Z</time>
      </trkpt>
      <trkpt lat="42.7529" lon="0.26373">
        <ele>2550.5</ele>
        <time>2009-10-30T09:58:09Z</time>
      </trkpt>
      <trkpt lat="42.7527" lon="0.264">
        <ele>2554.8</ele>
        <time>2009-10-30T09:59:15Z</time>
      </trkpt>
      <trkpt lat="42.75255" lon="0.26421">
        <ele>2559.6</ele>
        <time>2009-10-30T10:00:06Z</time>
      </trkpt>
      <trkpt lat="42.75244" lon="0.2644">
        <ele>2566.9</ele>
        <time>2009-10-30T10:00:50Z</time>
      </trkpt>
      <trkpt lat="42.75241" lon="0.2646">
        <ele>2567.8</ele>
        <time>2009-10-30T10:01:26Z</time>
      </trkpt>
      <trkpt lat="42.75242" lon="0.26465">
        <ele>2567.8</ele>
        <time>2009-10-30T10:01:34Z</time>
      </trkpt>
      <trkpt lat="42.75242" lon="0.26488">
        <ele>2568.8</ele>
        <time>2009-10-30T10:02:13Z</time>
      </trkpt>
      <trkpt lat="42.75237" lon="0.2652">
        <ele>2568.3</ele>
        <time>2009-10-30T10:03:10Z</time>
      </trkpt>
      <trkpt lat="42.75233" lon="0.26557">
        <ele>2572.1</ele>
        <time>2009-10-30T10:04:13Z</time>
      </trkpt>
      <trkpt lat="42.75226" lon="0.2659">
        <ele>2575</ele>
        <time>2009-10-30T10:05:13Z</time>
      </trkpt>
      <trkpt lat="42.75231" lon="0.26614">
        <ele>2580.3</ele>
        <time>2009-10-30T10:05:57Z</time>
      </trkpt>
      <trkpt lat="42.7523" lon="0.26645">
        <ele>2583.7</ele>
        <time>2009-10-30T10:06:50Z</time>
      </trkpt>
      <trkpt lat="42.75213" lon="0.26678">
        <ele>2585.6</ele>
        <time>2009-10-30T10:07:58Z</time>
      </trkpt>
      <trkpt lat="42.75203" lon="0.26718">
        <ele>2586.1</ele>
        <time>2009-10-30T10:09:09Z</time>
      </trkpt>
      <trkpt lat="42.75186" lon="0.26753">
        <ele>2584.6</ele>
        <time>2009-10-30T10:10:21Z</time>
      </trkpt>
      <trkpt lat="42.75175" lon="0.26783">
        <ele>2585.1</ele>
        <time>2009-10-30T10:11:19Z</time>
      </trkpt>
      <trkpt lat="42.75169" lon="0.26813">
        <ele>2587.5</ele>
        <time>2009-10-30T10:12:13Z</time>
      </trkpt>
      <trkpt lat="42.75167" lon="0.26837">
        <ele>2590.9</ele>
        <time>2009-10-30T10:12:54Z</time>
      </trkpt>
      <trkpt lat="42.75167" lon="0.26856">
        <ele>2596.2</ele>
        <time>2009-10-30T10:13:27Z</time>
      </trkpt>
      <trkpt lat="42.75174" lon="0.2687">
        <ele>2597.6</ele>
        <time>2009-10-30T10:13:55Z</time>
      </trkpt>
      <trkpt lat="42.75176" lon="0.26885">
        <ele>2601</ele>
        <time>2009-10-30T10:14:24Z</time>
      </trkpt>
      <trkpt lat="42.75174" lon="0.26897">
        <ele>2605.3</ele>
        <time>2009-10-30T10:14:46Z</time>
      </trkpt>
      <trkpt lat="42.75168" lon="0.26899">
        <ele>2610.6</ele>
        <time>2009-10-30T10:15:31Z</time>
      </trkpt>
      <trkpt lat="42.75163" lon="0.2691">
        <ele>2612.5</ele>
        <time>2009-10-30T10:16:27Z</time>
      </trkpt>
      <trkpt lat="42.75157" lon="0.2692">
        <ele>2615.9</ele>
        <time>2009-10-30T10:16:52Z</time>
      </trkpt>
      <trkpt lat="42.75144" lon="0.26934">
        <ele>2614</ele>
        <time>2009-10-30T10:17:36Z</time>
      </trkpt>
      <trkpt lat="42.7514" lon="0.2694">
        <ele>2616.4</ele>
        <time>2009-10-30T10:17:53Z</time>
      </trkpt>
      <trkpt lat="42.75136" lon="0.26949">
        <ele>2616.8</ele>
        <time>2009-10-30T10:18:14Z</time>
      </trkpt>
      <trkpt lat="42.75131" lon="0.26956">
        <ele>2616.4</ele>
        <time>2009-10-30T10:18:33Z</time>
      </trkpt>
      <trkpt lat="42.75129" lon="0.26962">
        <ele>2619.7</ele>
        <time>2009-10-30T10:18:49Z</time>
      </trkpt>
      <trkpt lat="42.75122" lon="0.26971">
        <ele>2625</ele>
        <time>2009-10-30T10:19:18Z</time>
      </trkpt>
      <trkpt lat="42.75117" lon="0.26979">
        <ele>2626.9</ele>
        <time>2009-10-30T10:19:38Z</time>
      </trkpt>
      <trkpt lat="42.75112" lon="0.26986">
        <ele>2635.1</ele>
        <time>2009-10-30T10:20:05Z</time>
      </trkpt>
      <trkpt lat="42.75109" lon="0.26994">
        <ele>2637</ele>
        <time>2009-10-30T10:20:23Z</time>
      </trkpt>
      <trkpt lat="42.7511" lon="0.27001">
        <ele>2641.4</ele>
        <time>2009-10-30T10:20:23Z</time>
      </trkpt>
      <trkpt lat="42.75108" lon="0.2701">
        <ele>2645.7</ele>
        <time>2009-10-30T10:20:44Z</time>
      </trkpt>
      <trkpt lat="42.75099" lon="0.2703">
        <ele>2652.4</ele>
        <time>2009-10-30T10:21:33Z</time>
      </trkpt>
      <trkpt lat="42.75097" lon="0.27045">
        <ele>2655.8</ele>
        <time>2009-10-30T10:22:04Z</time>
      </trkpt>
      <trkpt lat="42.75093" lon="0.27053">
        <ele>2659.1</ele>
        <time>2009-10-30T10:22:26Z</time>
      </trkpt>
      <trkpt lat="42.75093" lon="0.27059">
        <ele>2662</ele>
        <time>2009-10-30T10:22:38Z</time>
      </trkpt>
      <trkpt lat="42.75091" lon="0.2707">
        <ele>2664.9</ele>
        <time>2009-10-30T10:23:04Z</time>
      </trkpt>
      <trkpt lat="42.75092" lon="0.27081">
        <ele>2668.8</ele>
        <time>2009-10-30T10:23:32Z</time>
      </trkpt>
      <trkpt lat="42.75094" lon="0.27086">
        <ele>2671.2</ele>
        <time>2009-10-30T10:23:46Z</time>
      </trkpt>
      <trkpt lat="42.75091" lon="0.27096">
        <ele>2675.5</ele>
        <time>2009-10-30T10:24:19Z</time>
      </trkpt>
      <trkpt lat="42.75088" lon="0.27106">
        <ele>2679.3</ele>
        <time>2009-10-30T10:24:57Z</time>
      </trkpt>
      <trkpt lat="42.75084" lon="0.27114">
        <ele>2684.1</ele>
        <time>2009-10-30T10:25:19Z</time>
      </trkpt>
      <trkpt lat="42.75084" lon="0.27127">
        <ele>2688</ele>
        <time>2009-10-30T10:25:45Z</time>
      </trkpt>
      <trkpt lat="42.75084" lon="0.27133">
        <ele>2690.4</ele>
        <time>2009-10-30T10:26:00Z</time>
      </trkpt>
      <trkpt lat="42.75084" lon="0.27142">
        <ele>2692.3</ele>
        <time>2009-10-30T10:26:17Z</time>
      </trkpt>
      <trkpt lat="42.75083" lon="0.27147">
        <ele>2694.7</ele>
        <time>2009-10-30T10:26:29Z</time>
      </trkpt>
      <trkpt lat="42.75084" lon="0.27148">
        <ele>2691.8</ele>
        <time>2009-10-30T10:26:37Z</time>
      </trkpt>
      <trkpt lat="42.75087" lon="0.27154">
        <ele>2699.5</ele>
        <time>2009-10-30T10:27:00Z</time>
      </trkpt>
      <trkpt lat="42.75098" lon="0.27166">
        <ele>2705.3</ele>
        <time>2009-10-30T10:27:39Z</time>
      </trkpt>
      <trkpt lat="42.75106" lon="0.27174">
        <ele>2708.7</ele>
        <time>2009-10-30T10:28:07Z</time>
      </trkpt>
      <trkpt lat="42.75121" lon="0.27184">
        <ele>2712</ele>
        <time>2009-10-30T10:28:52Z</time>
      </trkpt>
      <trkpt lat="42.7513" lon="0.27189">
        <ele>2715.9</ele>
        <time>2009-10-30T10:29:21Z</time>
      </trkpt>
      <trkpt lat="42.75142" lon="0.27196">
        <ele>2720.2</ele>
        <time>2009-10-30T10:29:57Z</time>
      </trkpt>
      <trkpt lat="42.7515" lon="0.27204">
        <ele>2726.4</ele>
        <time>2009-10-30T10:30:28Z</time>
      </trkpt>
      <trkpt lat="42.75144" lon="0.27209">
        <ele>2728.4</ele>
        <time>2009-10-30T10:30:49Z</time>
      </trkpt>
      <trkpt lat="42.75143" lon="0.2722">
        <ele>2733.6</ele>
        <time>2009-10-30T10:31:14Z</time>
      </trkpt>
      <trkpt lat="42.75155" lon="0.27226">
        <ele>2737.5</ele>
        <time>2009-10-30T10:31:50Z</time>
      </trkpt>
      <trkpt lat="42.75154" lon="0.27231">
        <ele>2738.5</ele>
        <time>2009-10-30T10:32:00Z</time>
      </trkpt>
      <trkpt lat="42.75154" lon="0.27231">
        <ele>2739.9</ele>
        <time>2009-10-30T10:32:04Z</time>
      </trkpt>
      <trkpt lat="42.7516" lon="0.27242">
        <ele>2744.7</ele>
        <time>2009-10-30T10:32:33Z</time>
      </trkpt>
      <trkpt lat="42.75169" lon="0.27254">
        <ele>2749</ele>
        <time>2009-10-30T10:33:07Z</time>
      </trkpt>
      <trkpt lat="42.75164" lon="0.2726">
        <ele>2753.4</ele>
        <time>2009-10-30T10:33:27Z</time>
      </trkpt>
      <trkpt lat="42.75159" lon="0.27265">
        <ele>2755.3</ele>
        <time>2009-10-30T10:33:45Z</time>
      </trkpt>
      <trkpt lat="42.75157" lon="0.27267">
        <ele>2755.8</ele>
        <time>2009-10-30T10:33:50Z</time>
      </trkpt>
      <trkpt lat="42.75159" lon="0.27272">
        <ele>2758.6</ele>
        <time>2009-10-30T10:34:04Z</time>
      </trkpt>
      <trkpt lat="42.75153" lon="0.27279">
        <ele>2763.4</ele>
        <time>2009-10-30T10:34:27Z</time>
      </trkpt>
      <trkpt lat="42.7516" lon="0.27289">
        <ele>2766.8</ele>
        <time>2009-10-30T10:34:53Z</time>
      </trkpt>
      <trkpt lat="42.7517" lon="0.27301">
        <ele>2771.6</ele>
        <time>2009-10-30T10:35:31Z</time>
      </trkpt>
      <trkpt lat="42.75169" lon="0.2731">
        <ele>2776.4</ele>
        <time>2009-10-30T10:35:53Z</time>
      </trkpt>
      <trkpt lat="42.7517" lon="0.27321">
        <ele>2782.2</ele>
        <time>2009-10-30T10:36:24Z</time>
      </trkpt>
      <trkpt lat="42.75179" lon="0.27327">
        <ele>2785.6</ele>
        <time>2009-10-30T10:36:52Z</time>
      </trkpt>
      <trkpt lat="42.7519" lon="0.27337">
        <ele>2791.8</ele>
        <time>2009-10-30T10:37:30Z</time>
      </trkpt>
      <trkpt lat="42.75205" lon="0.27344">
        <ele>2797.1</ele>
        <time>2009-10-30T10:38:14Z</time>
      </trkpt>
      <trkpt lat="42.75212" lon="0.27355">
        <ele>2800.5</ele>
        <time>2009-10-30T10:38:43Z</time>
      </trkpt>
      <trkpt lat="42.75211" lon="0.27361">
        <ele>2803.3</ele>
        <time>2009-10-30T10:38:56Z</time>
      </trkpt>
      <trkpt lat="42.75212" lon="0.27361">
        <ele>2802.9</ele>
        <time>2009-10-30T10:38:58Z</time>
      </trkpt>
      <trkpt lat="42.75221" lon="0.2736">
        <ele>2806.7</ele>
        <time>2009-10-30T10:39:24Z</time>
      </trkpt>
      <trkpt lat="42.75226" lon="0.27367">
        <ele>2812.5</ele>
        <time>2009-10-30T10:39:49Z</time>
      </trkpt>
      <trkpt lat="42.75227" lon="0.27367">
        <ele>2813.4</ele>
        <time>2009-10-30T10:39:53Z</time>
      </trkpt>
      <trkpt lat="42.7523" lon="0.27375">
        <ele>2818.2</ele>
        <time>2009-10-30T10:40:14Z</time>
      </trkpt>
      <trkpt lat="42.75233" lon="0.27381">
        <ele>2821.1</ele>
        <time>2009-10-30T10:40:30Z</time>
      </trkpt>
      <trkpt lat="42.75243" lon="0.27384">
        <ele>2826.9</ele>
        <time>2009-10-30T10:41:00Z</time>
      </trkpt>
      <trkpt lat="42.75251" lon="0.27391">
        <ele>2833.6</ele>
        <time>2009-10-30T10:41:31Z</time>
      </trkpt>
      <trkpt lat="42.75264" lon="0.27393">
        <ele>2838.9</ele>
        <time>2009-10-30T10:42:07Z</time>
      </trkpt>
      <trkpt lat="42.75266" lon="0.27396">
        <ele>2839.9</ele>
        <time>2009-10-30T10:42:16Z</time>
      </trkpt>
      <trkpt lat="42.75279" lon="0.27398">
        <ele>2846.1</ele>
        <time>2009-10-30T10:42:53Z</time>
      </trkpt>
      <trkpt lat="42.75286" lon="0.27405">
        <ele>2850.9</ele>
        <time>2009-10-30T10:43:19Z</time>
      </trkpt>
      <trkpt lat="42.75292" lon="0.27409">
        <ele>2854.3</ele>
        <time>2009-10-30T10:43:41Z</time>
      </trkpt>
      <trkpt lat="42.75298" lon="0.2741">
        <ele>2856.7</ele>
        <time>2009-10-30T10:43:56Z</time>
      </trkpt>
      <trkpt lat="42.75305" lon="0.27406">
        <ele>2858.6</ele>
        <time>2009-10-30T10:44:19Z</time>
      </trkpt>
      <trkpt lat="42.75317" lon="0.27407">
        <ele>2862</ele>
        <time>2009-10-30T10:44:50Z</time>
      </trkpt>
      <trkpt lat="42.75326" lon="0.2741">
        <ele>2867.3</ele>
        <time>2009-10-30T10:45:19Z</time>
      </trkpt>
      <trkpt lat="42.75326" lon="0.27415">
        <ele>2870.2</ele>
        <time>2009-10-30T10:45:32Z</time>
      </trkpt>
      <trkpt lat="42.75328" lon="0.27419">
        <ele>2872.6</ele>
        <time>2009-10-30T10:45:44Z</time>
      </trkpt>
      <trkpt lat="42.75337" lon="0.27425">
        <ele>2879.3</ele>
        <time>2009-10-30T10:46:15Z</time>
      </trkpt>
      <trkpt lat="42.75347" lon="0.2743">
        <ele>2883.6</ele>
        <time>2009-10-30T10:46:44Z</time>
      </trkpt>
      <trkpt lat="42.75353" lon="0.27435">
        <ele>2887</ele>
        <time>2009-10-30T10:47:05Z</time>
      </trkpt>
      <trkpt lat="42.75357" lon="0.27438">
        <ele>2889.9</ele>
        <time>2009-10-30T10:47:20Z</time>
      </trkpt>
      <trkpt lat="42.75363" lon="0.27444">
        <ele>2895.1</ele>
        <time>2009-10-30T10:47:44Z</time>
      </trkpt>
      <trkpt lat="42.75368" lon="0.27455">
        <ele>2899.5</ele>
        <time>2009-10-30T10:48:11Z</time>
      </trkpt>
      <trkpt lat="42.75377" lon="0.2746">
        <ele>2903.8</ele>
        <time>2009-10-30T10:48:39Z</time>
      </trkpt>
      <trkpt lat="42.75385" lon="0.27463">
        <ele>2906.2</ele>
        <time>2009-10-30T10:49:01Z</time>
      </trkpt>
      <trkpt lat="42.75382" lon="0.27468">
        <ele>2910.5</ele>
        <time>2009-10-30T10:49:18Z</time>
      </trkpt>
      <trkpt lat="42.75384" lon="0.27477">
        <ele>2915.8</ele>
        <time>2009-10-30T10:49:41Z</time>
      </trkpt>
      <trkpt lat="42.75386" lon="0.2748">
        <ele>2918.7</ele>
        <time>2009-10-30T10:49:52Z</time>
      </trkpt>
      <trkpt lat="42.7539" lon="0.27481">
        <ele>2921.6</ele>
        <time>2009-10-30T10:50:04Z</time>
      </trkpt>
      <trkpt lat="42.75391" lon="0.27484">
        <ele>2921.1</ele>
        <time>2009-10-30T10:50:11Z</time>
      </trkpt>
      <trkpt lat="42.7539" lon="0.27485">
        <ele>2922.5</ele>
        <time>2009-10-30T10:50:16Z</time>
      </trkpt>
      <trkpt lat="42.75391" lon="0.27486">
        <ele>2924.5</ele>
        <time>2009-10-30T10:50:22Z</time>
      </trkpt>
      <trkpt lat="42.75395" lon="0.27488">
        <ele>2927.8</ele>
        <time>2009-10-30T10:50:35Z</time>
      </trkpt>
      <trkpt lat="42.75398" lon="0.27492">
        <ele>2930.7</ele>
        <time>2009-10-30T10:50:48Z</time>
      </trkpt>
      <trkpt lat="42.75403" lon="0.27494">
        <ele>2935</ele>
        <time>2009-10-30T10:51:07Z</time>
      </trkpt>
      <trkpt lat="42.75408" lon="0.27497">
        <ele>2937</ele>
        <time>2009-10-30T10:51:22Z</time>
      </trkpt>
      <trkpt lat="42.75414" lon="0.27502">
        <ele>2939.8</ele>
        <time>2009-10-30T10:51:42Z</time>
      </trkpt>
      <trkpt lat="42.75421" lon="0.27505">
        <ele>2942.7</ele>
        <time>2009-10-30T10:52:08Z</time>
      </trkpt>
      <trkpt lat="42.75422" lon="0.27505">
        <ele>2943.7</ele>
        <time>2009-10-30T10:52:37Z</time>
      </trkpt>
      <trkpt lat="42.75419" lon="0.27504">
        <ele>2941.8</ele>
        <time>2009-10-30T10:52:37Z</time>
      </trkpt>
      <trkpt lat="42.75417" lon="0.27502">
        <ele>2944.2</ele>
        <time>2009-10-30T10:52:37Z</time>
      </trkpt>
      <trkpt lat="42.75407" lon="0.27496">
        <ele>2938.4</ele>
        <time>2009-10-30T10:53:08Z</time>
      </trkpt>
      <trkpt lat="42.75401" lon="0.27494">
        <ele>2933.6</ele>
        <time>2009-10-30T10:53:29Z</time>
      </trkpt>
      <trkpt lat="42.75396" lon="0.27489">
        <ele>2931.7</ele>
        <time>2009-10-30T10:53:45Z</time>
      </trkpt>
      <trkpt lat="42.75393" lon="0.27487">
        <ele>2929.3</ele>
        <time>2009-10-30T10:53:56Z</time>
      </trkpt>
      <trkpt lat="42.7539" lon="0.27485">
        <ele>2926.9</ele>
        <time>2009-10-30T10:54:08Z</time>
      </trkpt>
      <trkpt lat="42.75384" lon="0.27479">
        <ele>2921.1</ele>
        <time>2009-10-30T10:54:31Z</time>
      </trkpt>
      <trkpt lat="42.75376" lon="0.27469">
        <ele>2916.3</ele>
        <time>2009-10-30T10:55:01Z</time>
      </trkpt>
      <trkpt lat="42.75368" lon="0.27452">
        <ele>2903.8</ele>
        <time>2009-10-30T10:55:52Z</time>
      </trkpt>
      <trkpt lat="42.75356" lon="0.27435">
        <ele>2894.2</ele>
        <time>2009-10-30T10:56:44Z</time>
      </trkpt>
      <trkpt lat="42.75334" lon="0.27421">
        <ele>2884.1</ele>
        <time>2009-10-30T10:57:54Z</time>
      </trkpt>
      <trkpt lat="42.7533" lon="0.2742">
        <ele>2881.2</ele>
        <time>2009-10-30T10:58:07Z</time>
      </trkpt>
      <trkpt lat="42.75326" lon="0.27408">
        <ele>2875</ele>
        <time>2009-10-30T10:58:37Z</time>
      </trkpt>
      <trkpt lat="42.75313" lon="0.27407">
        <ele>2865.8</ele>
        <time>2009-10-30T10:59:18Z</time>
      </trkpt>
      <trkpt lat="42.75302" lon="0.27396">
        <ele>2858.6</ele>
        <time>2009-10-30T10:59:59Z</time>
      </trkpt>
      <trkpt lat="42.75288" lon="0.27387">
        <ele>2848.5</ele>
        <time>2009-10-30T11:00:47Z</time>
      </trkpt>
      <trkpt lat="42.75272" lon="0.27376">
        <ele>2837.9</ele>
        <time>2009-10-30T11:01:40Z</time>
      </trkpt>
      <trkpt lat="42.75255" lon="0.27363">
        <ele>2827.9</ele>
        <time>2009-10-30T11:02:38Z</time>
      </trkpt>
      <trkpt lat="42.75245" lon="0.27357">
        <ele>2820.6</ele>
        <time>2009-10-30T11:03:13Z</time>
      </trkpt>
      <trkpt lat="42.75227" lon="0.27344">
        <ele>2811</ele>
        <time>2009-10-30T11:04:11Z</time>
      </trkpt>
      <trkpt lat="42.75211" lon="0.27338">
        <ele>2801.4</ele>
        <time>2009-10-30T11:05:01Z</time>
      </trkpt>
      <trkpt lat="42.7518" lon="0.27326">
        <ele>2795.7</ele>
        <time>2009-10-30T11:06:29Z</time>
      </trkpt>
      <trkpt lat="42.75164" lon="0.27315">
        <ele>2788</ele>
        <time>2009-10-30T11:07:19Z</time>
      </trkpt>
      <trkpt lat="42.75161" lon="0.27314">
        <ele>2788</ele>
        <time>2009-10-30T11:07:27Z</time>
      </trkpt>
      <trkpt lat="42.75161" lon="0.27315">
        <ele>2788.9</ele>
        <time>2009-10-30T11:07:30Z</time>
      </trkpt>
      <trkpt lat="42.75159" lon="0.27311">
        <ele>2787</ele>
        <time>2009-10-30T11:07:41Z</time>
      </trkpt>
      <trkpt lat="42.75151" lon="0.27302">
        <ele>2781.7</ele>
        <time>2009-10-30T11:08:11Z</time>
      </trkpt>
      <trkpt lat="42.75145" lon="0.27296">
        <ele>2779.8</ele>
        <time>2009-10-30T11:08:32Z</time>
      </trkpt>
      <trkpt lat="42.75143" lon="0.27294">
        <ele>2778.8</ele>
        <time>2009-10-30T11:08:38Z</time>
      </trkpt>
      <trkpt lat="42.75144" lon="0.27295">
        <ele>2779.8</ele>
        <time>2009-10-30T11:08:42Z</time>
      </trkpt>
      <trkpt lat="42.75142" lon="0.27291">
        <ele>2777.9</ele>
        <time>2009-10-30T11:08:52Z</time>
      </trkpt>
      <trkpt lat="42.75143" lon="0.27285">
        <ele>2775.9</ele>
        <time>2009-10-30T11:09:05Z</time>
      </trkpt>
      <trkpt lat="42.7514" lon="0.27275">
        <ele>2770.7</ele>
        <time>2009-10-30T11:09:28Z</time>
      </trkpt>
      <trkpt lat="42.75141" lon="0.27266">
        <ele>2767.8</ele>
        <time>2009-10-30T11:09:48Z</time>
      </trkpt>
      <trkpt lat="42.75138" lon="0.27258">
        <ele>2762.5</ele>
        <time>2009-10-30T11:10:10Z</time>
      </trkpt>
      <trkpt lat="42.75133" lon="0.27253">
        <ele>2760.6</ele>
        <time>2009-10-30T11:10:28Z</time>
      </trkpt>
      <trkpt lat="42.75128" lon="0.27248">
        <ele>2757.7</ele>
        <time>2009-10-30T11:10:46Z</time>
      </trkpt>
      <trkpt lat="42.75126" lon="0.27244">
        <ele>2755.8</ele>
        <time>2009-10-30T11:10:55Z</time>
      </trkpt>
      <trkpt lat="42.7513" lon="0.27239">
        <ele>2751.9</ele>
        <time>2009-10-30T11:11:12Z</time>
      </trkpt>
      <trkpt lat="42.75125" lon="0.27235">
        <ele>2750.9</ele>
        <time>2009-10-30T11:11:28Z</time>
      </trkpt>
      <trkpt lat="42.7512" lon="0.27233">
        <ele>2748.1</ele>
        <time>2009-10-30T11:11:43Z</time>
      </trkpt>
      <trkpt lat="42.75116" lon="0.27231">
        <ele>2746.1</ele>
        <time>2009-10-30T11:11:55Z</time>
      </trkpt>
      <trkpt lat="42.75122" lon="0.27224">
        <ele>2743.3</ele>
        <time>2009-10-30T11:12:17Z</time>
      </trkpt>
      <trkpt lat="42.75126" lon="0.2722">
        <ele>2740.9</ele>
        <time>2009-10-30T11:12:31Z</time>
      </trkpt>
      <trkpt lat="42.75127" lon="0.27219">
        <ele>2741.3</ele>
        <time>2009-10-30T11:12:34Z</time>
      </trkpt>
      <trkpt lat="42.75125" lon="0.27221">
        <ele>2740.9</ele>
        <time>2009-10-30T11:12:38Z</time>
      </trkpt>
      <trkpt lat="42.75126" lon="0.27216">
        <ele>2740.4</ele>
        <time>2009-10-30T11:12:48Z</time>
      </trkpt>
      <trkpt lat="42.75127" lon="0.27208">
        <ele>2735.6</ele>
        <time>2009-10-30T11:13:07Z</time>
      </trkpt>
      <trkpt lat="42.75128" lon="0.27208">
        <ele>2734.1</ele>
        <time>2009-10-30T11:13:11Z</time>
      </trkpt>
      <trkpt lat="42.7513" lon="0.27203">
        <ele>2731.7</ele>
        <time>2009-10-30T11:13:24Z</time>
      </trkpt>
      <trkpt lat="42.75124" lon="0.27197">
        <ele>2730.3</ele>
        <time>2009-10-30T11:13:43Z</time>
      </trkpt>
      <trkpt lat="42.75123" lon="0.27195">
        <ele>2729.3</ele>
        <time>2009-10-30T11:13:50Z</time>
      </trkpt>
      <trkpt lat="42.75125" lon="0.27195">
        <ele>2728.8</ele>
        <time>2009-10-30T11:13:55Z</time>
      </trkpt>
      <trkpt lat="42.75122" lon="0.27197">
        <ele>2728.4</ele>
        <time>2009-10-30T11:14:04Z</time>
      </trkpt>
      <trkpt lat="42.7512" lon="0.27196">
        <ele>2727.9</ele>
        <time>2009-10-30T11:14:09Z</time>
      </trkpt>
      <trkpt lat="42.75116" lon="0.27188">
        <ele>2723.6</ele>
        <time>2009-10-30T11:14:31Z</time>
      </trkpt>
      <trkpt lat="42.75106" lon="0.27182">
        <ele>2720.2</ele>
        <time>2009-10-30T11:15:00Z</time>
      </trkpt>
      <trkpt lat="42.75104" lon="0.27175">
        <ele>2717.3</ele>
        <time>2009-10-30T11:15:16Z</time>
      </trkpt>
      <trkpt lat="42.751" lon="0.2717">
        <ele>2716.3</ele>
        <time>2009-10-30T11:15:31Z</time>
      </trkpt>
      <trkpt lat="42.75097" lon="0.27167">
        <ele>2715.4</ele>
        <time>2009-10-30T11:15:41Z</time>
      </trkpt>
      <trkpt lat="42.7509" lon="0.27161">
        <ele>2711.1</ele>
        <time>2009-10-30T11:16:06Z</time>
      </trkpt>
      <trkpt lat="42.75083" lon="0.27151">
        <ele>2709.6</ele>
        <time>2009-10-30T11:16:32Z</time>
      </trkpt>
      <trkpt lat="42.75081" lon="0.27148">
        <ele>2701.4</ele>
        <time>2009-10-30T11:16:59Z</time>
      </trkpt>
      <trkpt lat="42.75083" lon="0.27146">
        <ele>2701</ele>
        <time>2009-10-30T11:17:05Z</time>
      </trkpt>
      <trkpt lat="42.75085" lon="0.27144">
        <ele>2701</ele>
        <time>2009-10-30T11:17:11Z</time>
      </trkpt>
      <trkpt lat="42.75086" lon="0.27134">
        <ele>2696.6</ele>
        <time>2009-10-30T11:17:33Z</time>
      </trkpt>
      <trkpt lat="42.7509" lon="0.2712">
        <ele>2690.9</ele>
        <time>2009-10-30T11:18:07Z</time>
      </trkpt>
      <trkpt lat="42.75094" lon="0.27107">
        <ele>2685.6</ele>
        <time>2009-10-30T11:18:37Z</time>
      </trkpt>
      <trkpt lat="42.75094" lon="0.27096">
        <ele>2682.2</ele>
        <time>2009-10-30T11:19:01Z</time>
      </trkpt>
      <trkpt lat="42.75093" lon="0.27093">
        <ele>2680.3</ele>
        <time>2009-10-30T11:19:09Z</time>
      </trkpt>
      <trkpt lat="42.75094" lon="0.27092">
        <ele>2679.8</ele>
        <time>2009-10-30T11:19:11Z</time>
      </trkpt>
      <trkpt lat="42.75095" lon="0.27085">
        <ele>2677.9</ele>
        <time>2009-10-30T11:19:26Z</time>
      </trkpt>
      <trkpt lat="42.75095" lon="0.27069">
        <ele>2671.2</ele>
        <time>2009-10-30T11:20:02Z</time>
      </trkpt>
      <trkpt lat="42.75099" lon="0.27055">
        <ele>2667.8</ele>
        <time>2009-10-30T11:20:32Z</time>
      </trkpt>
      <trkpt lat="42.75096" lon="0.27041">
        <ele>2663</ele>
        <time>2009-10-30T11:21:02Z</time>
      </trkpt>
      <trkpt lat="42.75097" lon="0.27027">
        <ele>2659.1</ele>
        <time>2009-10-30T11:21:31Z</time>
      </trkpt>
      <trkpt lat="42.75099" lon="0.27019">
        <ele>2655.8</ele>
        <time>2009-10-30T11:21:49Z</time>
      </trkpt>
      <trkpt lat="42.75107" lon="0.27018">
        <ele>2651.9</ele>
        <time>2009-10-30T11:22:14Z</time>
      </trkpt>
      <trkpt lat="42.75112" lon="0.27004">
        <ele>2649.5</ele>
        <time>2009-10-30T11:22:45Z</time>
      </trkpt>
      <trkpt lat="42.75114" lon="0.26998">
        <ele>2648.1</ele>
        <time>2009-10-30T11:23:00Z</time>
      </trkpt>
      <trkpt lat="42.75114" lon="0.26998">
        <ele>2648.1</ele>
        <time>2009-10-30T11:23:00Z</time>
      </trkpt>
      <trkpt lat="42.75114" lon="0.26993">
        <ele>2646.2</ele>
        <time>2009-10-30T11:23:10Z</time>
      </trkpt>
      <trkpt lat="42.75116" lon="0.26988">
        <ele>2645.2</ele>
        <time>2009-10-30T11:23:21Z</time>
      </trkpt>
      <trkpt lat="42.75118" lon="0.26984">
        <ele>2645.2</ele>
        <time>2009-10-30T11:23:32Z</time>
      </trkpt>
      <trkpt lat="42.75121" lon="0.26977">
        <ele>2643.8</ele>
        <time>2009-10-30T11:23:48Z</time>
      </trkpt>
      <trkpt lat="42.75127" lon="0.26968">
        <ele>2638</ele>
        <time>2009-10-30T11:24:14Z</time>
      </trkpt>
      <trkpt lat="42.75132" lon="0.26967">
        <ele>2636.6</ele>
        <time>2009-10-30T11:24:29Z</time>
      </trkpt>
      <trkpt lat="42.75136" lon="0.26954">
        <ele>2630.8</ele>
        <time>2009-10-30T11:25:00Z</time>
      </trkpt>
      <trkpt lat="42.75144" lon="0.2694">
        <ele>2627.9</ele>
        <time>2009-10-30T11:25:35Z</time>
      </trkpt>
      <trkpt lat="42.75153" lon="0.2693">
        <ele>2626.9</ele>
        <time>2009-10-30T11:26:06Z</time>
      </trkpt>
      <trkpt lat="42.75163" lon="0.2692">
        <ele>2624.5</ele>
        <time>2009-10-30T11:26:34Z</time>
      </trkpt>
      <trkpt lat="42.75169" lon="0.26907">
        <ele>2623.6</ele>
        <time>2009-10-30T11:27:01Z</time>
      </trkpt>
      <trkpt lat="42.75181" lon="0.26894">
        <ele>2621.7</ele>
        <time>2009-10-30T11:27:31Z</time>
      </trkpt>
      <trkpt lat="42.75189" lon="0.26895">
        <ele>2621.7</ele>
        <time>2009-10-30T11:27:55Z</time>
      </trkpt>
      <trkpt lat="42.75201" lon="0.26885">
        <ele>2617.3</ele>
        <time>2009-10-30T11:28:27Z</time>
      </trkpt>
      <trkpt lat="42.75206" lon="0.26869">
        <ele>2615.4</ele>
        <time>2009-10-30T11:28:57Z</time>
      </trkpt>
      <trkpt lat="42.75215" lon="0.26855">
        <ele>2612</ele>
        <time>2009-10-30T11:29:30Z</time>
      </trkpt>
      <trkpt lat="42.75219" lon="0.26838">
        <ele>2609.6</ele>
        <time>2009-10-30T11:30:02Z</time>
      </trkpt>
      <trkpt lat="42.75223" lon="0.2682">
        <ele>2603.4</ele>
        <time>2009-10-30T11:30:36Z</time>
      </trkpt>
      <trkpt lat="42.75229" lon="0.26805">
        <ele>2599.1</ele>
        <time>2009-10-30T11:31:06Z</time>
      </trkpt>
      <trkpt lat="42.7524" lon="0.26795">
        <ele>2597.1</ele>
        <time>2009-10-30T11:31:37Z</time>
      </trkpt>
      <trkpt lat="42.75249" lon="0.26783">
        <ele>2592.3</ele>
        <time>2009-10-30T11:32:09Z</time>
      </trkpt>
      <trkpt lat="42.7526" lon="0.26772">
        <ele>2588.5</ele>
        <time>2009-10-30T11:32:42Z</time>
      </trkpt>
      <trkpt lat="42.75271" lon="0.26764">
        <ele>2582.7</ele>
        <time>2009-10-30T11:33:12Z</time>
      </trkpt>
      <trkpt lat="42.75282" lon="0.26762">
        <ele>2578.9</ele>
        <time>2009-10-30T11:33:41Z</time>
      </trkpt>
      <trkpt lat="42.75291" lon="0.26752">
        <ele>2572.6</ele>
        <time>2009-10-30T11:34:10Z</time>
      </trkpt>
      <trkpt lat="42.753" lon="0.26738">
        <ele>2570.2</ele>
        <time>2009-10-30T11:34:42Z</time>
      </trkpt>
      <trkpt lat="42.75308" lon="0.26722">
        <ele>2569.7</ele>
        <time>2009-10-30T11:35:15Z</time>
      </trkpt>
      <trkpt lat="42.7532" lon="0.26708">
        <ele>2566.4</ele>
        <time>2009-10-30T11:35:52Z</time>
      </trkpt>
      <trkpt lat="42.75328" lon="0.26691">
        <ele>2563</ele>
        <time>2009-10-30T11:36:28Z</time>
      </trkpt>
      <trkpt lat="42.75332" lon="0.26669">
        <ele>2559.2</ele>
        <time>2009-10-30T11:37:07Z</time>
      </trkpt>
      <trkpt lat="42.75341" lon="0.26653">
        <ele>2555.8</ele>
        <time>2009-10-30T11:37:43Z</time>
      </trkpt>
      <trkpt lat="42.75349" lon="0.26637">
        <ele>2551</ele>
        <time>2009-10-30T11:38:17Z</time>
      </trkpt>
      <trkpt lat="42.75351" lon="0.26619">
        <ele>2546.2</ele>
        <time>2009-10-30T11:38:49Z</time>
      </trkpt>
      <trkpt lat="42.75349" lon="0.26605">
        <ele>2544.7</ele>
        <time>2009-10-30T11:39:14Z</time>
      </trkpt>
      <trkpt lat="42.75354" lon="0.26591">
        <ele>2541.4</ele>
        <time>2009-10-30T11:39:41Z</time>
      </trkpt>
      <trkpt lat="42.75364" lon="0.2658">
        <ele>2536.6</ele>
        <time>2009-10-30T11:40:13Z</time>
      </trkpt>
      <trkpt lat="42.75371" lon="0.2657">
        <ele>2532.2</ele>
        <time>2009-10-30T11:40:38Z</time>
      </trkpt>
      <trkpt lat="42.75379" lon="0.26557">
        <ele>2527</ele>
        <time>2009-10-30T11:41:08Z</time>
      </trkpt>
      <trkpt lat="42.75385" lon="0.26541">
        <ele>2522.2</ele>
        <time>2009-10-30T11:41:42Z</time>
      </trkpt>
      <trkpt lat="42.75389" lon="0.26526">
        <ele>2519.3</ele>
        <time>2009-10-30T11:42:08Z</time>
      </trkpt>
      <trkpt lat="42.75394" lon="0.26506">
        <ele>2512.1</ele>
        <time>2009-10-30T11:42:49Z</time>
      </trkpt>
      <trkpt lat="42.75405" lon="0.26495">
        <ele>2508.2</ele>
        <time>2009-10-30T11:43:21Z</time>
      </trkpt>
      <trkpt lat="42.75417" lon="0.26488">
        <ele>2506.3</ele>
        <time>2009-10-30T11:43:51Z</time>
      </trkpt>
      <trkpt lat="42.75423" lon="0.26481">
        <ele>2504.4</ele>
        <time>2009-10-30T11:44:10Z</time>
      </trkpt>
      <trkpt lat="42.7543" lon="0.26469">
        <ele>2501.5</ele>
        <time>2009-10-30T11:44:35Z</time>
      </trkpt>
      <trkpt lat="42.75438" lon="0.2646">
        <ele>2498.1</ele>
        <time>2009-10-30T11:45:02Z</time>
      </trkpt>
      <trkpt lat="42.75442" lon="0.26447">
        <ele>2494.3</ele>
        <time>2009-10-30T11:45:27Z</time>
      </trkpt>
      <trkpt lat="42.75449" lon="0.26435">
        <ele>2490.9</ele>
        <time>2009-10-30T11:45:55Z</time>
      </trkpt>
      <trkpt lat="42.75458" lon="0.26423">
        <ele>2486.6</ele>
        <time>2009-10-30T11:46:24Z</time>
      </trkpt>
      <trkpt lat="42.75466" lon="0.2641">
        <ele>2482.3</ele>
        <time>2009-10-30T11:46:55Z</time>
      </trkpt>
      <trkpt lat="42.75469" lon="0.26397">
        <ele>2482.3</ele>
        <time>2009-10-30T11:47:19Z</time>
      </trkpt>
      <trkpt lat="42.75475" lon="0.26387">
        <ele>2476.5</ele>
        <time>2009-10-30T11:47:43Z</time>
      </trkpt>
      <trkpt lat="42.75482" lon="0.26373">
        <ele>2475.5</ele>
        <time>2009-10-30T11:48:12Z</time>
      </trkpt>
      <trkpt lat="42.75485" lon="0.26363">
        <ele>2471.7</ele>
        <time>2009-10-30T11:48:32Z</time>
      </trkpt>
      <trkpt lat="42.75488" lon="0.26351">
        <ele>2467.8</ele>
        <time>2009-10-30T11:48:56Z</time>
      </trkpt>
      <trkpt lat="42.75491" lon="0.2634">
        <ele>2465.4</ele>
        <time>2009-10-30T11:49:17Z</time>
      </trkpt>
      <trkpt lat="42.75494" lon="0.26331">
        <ele>2463.5</ele>
        <time>2009-10-30T11:49:33Z</time>
      </trkpt>
      <trkpt lat="42.75502" lon="0.2632">
        <ele>2460.2</ele>
        <time>2009-10-30T11:50:00Z</time>
      </trkpt>
      <trkpt lat="42.75501" lon="0.26321">
        <ele>2460.2</ele>
        <time>2009-10-30T11:50:02Z</time>
      </trkpt>
      <trkpt lat="42.75506" lon="0.26316">
        <ele>2459.7</ele>
        <time>2009-10-30T11:50:15Z</time>
      </trkpt>
      <trkpt lat="42.75512" lon="0.26298">
        <ele>2455.3</ele>
        <time>2009-10-30T11:50:51Z</time>
      </trkpt>
      <trkpt lat="42.75521" lon="0.26277">
        <ele>2453.4</ele>
        <time>2009-10-30T11:51:32Z</time>
      </trkpt>
      <trkpt lat="42.7553" lon="0.2626">
        <ele>2450.1</ele>
        <time>2009-10-30T11:52:08Z</time>
      </trkpt>
      <trkpt lat="42.75536" lon="0.2625">
        <ele>2447.7</ele>
        <time>2009-10-30T11:52:32Z</time>
      </trkpt>
      <trkpt lat="42.75545" lon="0.26231">
        <ele>2445.3</ele>
        <time>2009-10-30T11:53:10Z</time>
      </trkpt>
      <trkpt lat="42.75553" lon="0.26215">
        <ele>2442.8</ele>
        <time>2009-10-30T11:53:42Z</time>
      </trkpt>
      <trkpt lat="42.75553" lon="0.26214">
        <ele>2441.9</ele>
        <time>2009-10-30T11:53:45Z</time>
      </trkpt>
      <trkpt lat="42.75553" lon="0.26214">
        <ele>2442.4</ele>
        <time>2009-10-30T11:53:47Z</time>
      </trkpt>
      <trkpt lat="42.75557" lon="0.26211">
        <ele>2441.4</ele>
        <time>2009-10-30T11:53:59Z</time>
      </trkpt>
      <trkpt lat="42.75568" lon="0.26211">
        <ele>2440</ele>
        <time>2009-10-30T11:54:23Z</time>
      </trkpt>
      <trkpt lat="42.75582" lon="0.26214">
        <ele>2435.6</ele>
        <time>2009-10-30T11:54:59Z</time>
      </trkpt>
      <trkpt lat="42.75592" lon="0.26229">
        <ele>2435.2</ele>
        <time>2009-10-30T11:55:32Z</time>
      </trkpt>
      <trkpt lat="42.75604" lon="0.2624">
        <ele>2434.2</ele>
        <time>2009-10-30T11:56:07Z</time>
      </trkpt>
      <trkpt lat="42.75603" lon="0.26243">
        <ele>2432.8</ele>
        <time>2009-10-30T11:56:12Z</time>
      </trkpt>
      <trkpt lat="42.75604" lon="0.26242">
        <ele>2430.8</ele>
        <time>2009-10-30T11:56:16Z</time>
      </trkpt>
      <trkpt lat="42.75603" lon="0.26242">
        <ele>2430.8</ele>
        <time>2009-10-30T11:56:17Z</time>
      </trkpt>
      <trkpt lat="42.75603" lon="0.2624">
        <ele>2430.8</ele>
        <time>2009-10-30T11:56:20Z</time>
      </trkpt>
      <trkpt lat="42.75604" lon="0.26239">
        <ele>2430.8</ele>
        <time>2009-10-30T11:56:23Z</time>
      </trkpt>
      <trkpt lat="42.75604" lon="0.26239">
        <ele>2430.8</ele>
        <time>2009-10-30T11:56:24Z</time>
      </trkpt>
      <trkpt lat="42.75605" lon="0.26239">
        <ele>2430.8</ele>
        <time>2009-10-30T11:56:25Z</time>
      </trkpt>
      <trkpt lat="42.75608" lon="0.26239">
        <ele>2431.8</ele>
        <time>2009-10-30T11:56:32Z</time>
      </trkpt>
      <trkpt lat="42.7562" lon="0.26244">
        <ele>2431.3</ele>
        <time>2009-10-30T11:57:02Z</time>
      </trkpt>
      <trkpt lat="42.75631" lon="0.26249">
        <ele>2430.8</ele>
        <time>2009-10-30T11:57:29Z</time>
      </trkpt>
      <trkpt lat="42.75636" lon="0.26254">
        <ele>2427</ele>
        <time>2009-10-30T11:57:45Z</time>
      </trkpt>
      <trkpt lat="42.7564" lon="0.26258">
        <ele>2425.1</ele>
        <time>2009-10-30T11:57:57Z</time>
      </trkpt>
      <trkpt lat="42.7565" lon="0.26257">
        <ele>2422.7</ele>
        <time>2009-10-30T11:58:21Z</time>
      </trkpt>
      <trkpt lat="42.7566" lon="0.26263">
        <ele>2419.8</ele>
        <time>2009-10-30T11:58:48Z</time>
      </trkpt>
      <trkpt lat="42.75672" lon="0.26267">
        <ele>2416.9</ele>
        <time>2009-10-30T11:59:17Z</time>
      </trkpt>
      <trkpt lat="42.75681" lon="0.26267">
        <ele>2413</ele>
        <time>2009-10-30T11:59:39Z</time>
      </trkpt>
      <trkpt lat="42.75687" lon="0.26269">
        <ele>2409.2</ele>
        <time>2009-10-30T11:59:56Z</time>
      </trkpt>
      <trkpt lat="42.75697" lon="0.26268">
        <ele>2405.8</ele>
        <time>2009-10-30T12:00:21Z</time>
      </trkpt>
      <trkpt lat="42.75708" lon="0.26269">
        <ele>2402.5</ele>
        <time>2009-10-30T12:00:46Z</time>
      </trkpt>
      <trkpt lat="42.75719" lon="0.26266">
        <ele>2399.6</ele>
        <time>2009-10-30T12:01:12Z</time>
      </trkpt>
      <trkpt lat="42.75731" lon="0.2626">
        <ele>2395.3</ele>
        <time>2009-10-30T12:01:44Z</time>
      </trkpt>
      <trkpt lat="42.75744" lon="0.26256">
        <ele>2392.4</ele>
        <time>2009-10-30T12:02:16Z</time>
      </trkpt>
      <trkpt lat="42.7576" lon="0.26255">
        <ele>2390.5</ele>
        <time>2009-10-30T12:02:52Z</time>
      </trkpt>
      <trkpt lat="42.75772" lon="0.26253">
        <ele>2390</ele>
        <time>2009-10-30T12:03:22Z</time>
      </trkpt>
      <trkpt lat="42.75787" lon="0.26253">
        <ele>2387.6</ele>
        <time>2009-10-30T12:03:56Z</time>
      </trkpt>
      <trkpt lat="42.75798" lon="0.26262">
        <ele>2386.6</ele>
        <time>2009-10-30T12:04:24Z</time>
      </trkpt>
      <trkpt lat="42.75811" lon="0.26265">
        <ele>2383.7</ele>
        <time>2009-10-30T12:04:58Z</time>
      </trkpt>
      <trkpt lat="42.75822" lon="0.26269">
        <ele>2381.8</ele>
        <time>2009-10-30T12:05:24Z</time>
      </trkpt>
      <trkpt lat="42.75834" lon="0.26276">
        <ele>2378.4</ele>
        <time>2009-10-30T12:05:55Z</time>
      </trkpt>
      <trkpt lat="42.75846" lon="0.26283">
        <ele>2376</ele>
        <time>2009-10-30T12:06:26Z</time>
      </trkpt>
      <trkpt lat="42.75857" lon="0.26293">
        <ele>2374.1</ele>
        <time>2009-10-30T12:06:56Z</time>
      </trkpt>
      <trkpt lat="42.75866" lon="0.26294">
        <ele>2370.7</ele>
        <time>2009-10-30T12:07:20Z</time>
      </trkpt>
      <trkpt lat="42.75879" lon="0.26293">
        <ele>2368.3</ele>
        <time>2009-10-30T12:07:51Z</time>
      </trkpt>
      <trkpt lat="42.75893" lon="0.26295">
        <ele>2365</ele>
        <time>2009-10-30T12:08:24Z</time>
      </trkpt>
      <trkpt lat="42.75908" lon="0.26298">
        <ele>2364</ele>
        <time>2009-10-30T12:08:58Z</time>
      </trkpt>
      <trkpt lat="42.75922" lon="0.26303">
        <ele>2360.7</ele>
        <time>2009-10-30T12:09:34Z</time>
      </trkpt>
      <trkpt lat="42.75935" lon="0.2631">
        <ele>2358.7</ele>
        <time>2009-10-30T12:10:05Z</time>
      </trkpt>
      <trkpt lat="42.75948" lon="0.26315">
        <ele>2356.8</ele>
        <time>2009-10-30T12:10:37Z</time>
      </trkpt>
      <trkpt lat="42.75959" lon="0.26322">
        <ele>2353.4</ele>
        <time>2009-10-30T12:11:06Z</time>
      </trkpt>
      <trkpt lat="42.75972" lon="0.26326">
        <ele>2350.1</ele>
        <time>2009-10-30T12:11:38Z</time>
      </trkpt>
      <trkpt lat="42.75985" lon="0.26325">
        <ele>2346.7</ele>
        <time>2009-10-30T12:12:09Z</time>
      </trkpt>
      <trkpt lat="42.75996" lon="0.26322">
        <ele>2344.3</ele>
        <time>2009-10-30T12:12:36Z</time>
      </trkpt>
      <trkpt lat="42.76008" lon="0.26316">
        <ele>2342.4</ele>
        <time>2009-10-30T12:13:06Z</time>
      </trkpt>
      <trkpt lat="42.76019" lon="0.26311">
        <ele>2339</ele>
        <time>2009-10-30T12:13:33Z</time>
      </trkpt>
      <trkpt lat="42.76033" lon="0.26307">
        <ele>2335.2</ele>
        <time>2009-10-30T12:14:08Z</time>
      </trkpt>
      <trkpt lat="42.76048" lon="0.26302">
        <ele>2333.7</ele>
        <time>2009-10-30T12:14:44Z</time>
      </trkpt>
      <trkpt lat="42.76062" lon="0.26302">
        <ele>2333.7</ele>
        <time>2009-10-30T12:15:17Z</time>
      </trkpt>
      <trkpt lat="42.76076" lon="0.26304">
        <ele>2332.3</ele>
        <time>2009-10-30T12:15:49Z</time>
      </trkpt>
      <trkpt lat="42.76088" lon="0.26299">
        <ele>2329.4</ele>
        <time>2009-10-30T12:16:18Z</time>
      </trkpt>
      <trkpt lat="42.76098" lon="0.26292">
        <ele>2327</ele>
        <time>2009-10-30T12:16:45Z</time>
      </trkpt>
      <trkpt lat="42.76108" lon="0.26295">
        <ele>2324.6</ele>
        <time>2009-10-30T12:17:11Z</time>
      </trkpt>
      <trkpt lat="42.76117" lon="0.263">
        <ele>2324.6</ele>
        <time>2009-10-30T12:17:34Z</time>
      </trkpt>
      <trkpt lat="42.76126" lon="0.26309">
        <ele>2322.2</ele>
        <time>2009-10-30T12:18:00Z</time>
      </trkpt>
      <trkpt lat="42.76131" lon="0.26325">
        <ele>2319.3</ele>
        <time>2009-10-30T12:18:29Z</time>
      </trkpt>
      <trkpt lat="42.76134" lon="0.26334">
        <ele>2316.4</ele>
        <time>2009-10-30T12:18:48Z</time>
      </trkpt>
      <trkpt lat="42.76134" lon="0.26334">
        <ele>2316.9</ele>
        <time>2009-10-30T12:18:49Z</time>
      </trkpt>
      <trkpt lat="42.76133" lon="0.26336">
        <ele>2316</ele>
        <time>2009-10-30T12:18:53Z</time>
      </trkpt>
      <trkpt lat="42.76135" lon="0.2634">
        <ele>2314.5</ele>
        <time>2009-10-30T12:19:01Z</time>
      </trkpt>
      <trkpt lat="42.76135" lon="0.2634">
        <ele>2313.1</ele>
        <time>2009-10-30T12:19:04Z</time>
      </trkpt>
      <trkpt lat="42.76139" lon="0.26352">
        <ele>2312.1</ele>
        <time>2009-10-30T12:19:26Z</time>
      </trkpt>
      <trkpt lat="42.76145" lon="0.26365">
        <ele>2309.2</ele>
        <time>2009-10-30T12:19:54Z</time>
      </trkpt>
      <trkpt lat="42.76157" lon="0.26366">
        <ele>2306.3</ele>
        <time>2009-10-30T12:20:22Z</time>
      </trkpt>
      <trkpt lat="42.7617" lon="0.26363">
        <ele>2303.9</ele>
        <time>2009-10-30T12:20:54Z</time>
      </trkpt>
      <trkpt lat="42.76183" lon="0.26362">
        <ele>2303.5</ele>
        <time>2009-10-30T12:21:22Z</time>
      </trkpt>
      <trkpt lat="42.76192" lon="0.26365">
        <ele>2300.6</ele>
        <time>2009-10-30T12:21:45Z</time>
      </trkpt>
      <trkpt lat="42.76201" lon="0.26365">
        <ele>2299.6</ele>
        <time>2009-10-30T12:22:06Z</time>
      </trkpt>
      <trkpt lat="42.76211" lon="0.26366">
        <ele>2295.8</ele>
        <time>2009-10-30T12:22:31Z</time>
      </trkpt>
      <trkpt lat="42.76221" lon="0.26367">
        <ele>2292.9</ele>
        <time>2009-10-30T12:22:54Z</time>
      </trkpt>
      <trkpt lat="42.76232" lon="0.26368">
        <ele>2290</ele>
        <time>2009-10-30T12:23:21Z</time>
      </trkpt>
      <trkpt lat="42.76245" lon="0.26363">
        <ele>2287.6</ele>
        <time>2009-10-30T12:23:52Z</time>
      </trkpt>
      <trkpt lat="42.76255" lon="0.26362">
        <ele>2286.2</ele>
        <time>2009-10-30T12:24:17Z</time>
      </trkpt>
      <trkpt lat="42.76268" lon="0.2636">
        <ele>2282.3</ele>
        <time>2009-10-30T12:24:47Z</time>
      </trkpt>
      <trkpt lat="42.76279" lon="0.26358">
        <ele>2278.9</ele>
        <time>2009-10-30T12:25:13Z</time>
      </trkpt>
      <trkpt lat="42.76287" lon="0.26359">
        <ele>2277.5</ele>
        <time>2009-10-30T12:25:34Z</time>
      </trkpt>
      <trkpt lat="42.76291" lon="0.26363">
        <ele>2277</ele>
        <time>2009-10-30T12:25:45Z</time>
      </trkpt>
      <trkpt lat="42.76304" lon="0.26365">
        <ele>2274.6</ele>
        <time>2009-10-30T12:26:15Z</time>
      </trkpt>
      <trkpt lat="42.76317" lon="0.26365">
        <ele>2271.7</ele>
        <time>2009-10-30T12:26:47Z</time>
      </trkpt>
      <trkpt lat="42.7633" lon="0.2637">
        <ele>2268.4</ele>
        <time>2009-10-30T12:27:18Z</time>
      </trkpt>
      <trkpt lat="42.76341" lon="0.26376">
        <ele>2265</ele>
        <time>2009-10-30T12:27:47Z</time>
      </trkpt>
      <trkpt lat="42.76354" lon="0.26377">
        <ele>2261.6</ele>
        <time>2009-10-30T12:28:18Z</time>
      </trkpt>
      <trkpt lat="42.76356" lon="0.26378">
        <ele>2261.2</ele>
        <time>2009-10-30T12:28:22Z</time>
      </trkpt>
      <trkpt lat="42.76355" lon="0.26378">
        <ele>2260.7</ele>
        <time>2009-10-30T12:28:24Z</time>
      </trkpt>
      <trkpt lat="42.76355" lon="0.26378">
        <ele>2261.6</ele>
        <time>2009-10-30T12:28:26Z</time>
      </trkpt>
      <trkpt lat="42.76359" lon="0.2638">
        <ele>2259.7</ele>
        <time>2009-10-30T12:28:36Z</time>
      </trkpt>
      <trkpt lat="42.76367" lon="0.26385">
        <ele>2255.4</ele>
        <time>2009-10-30T12:28:59Z</time>
      </trkpt>
      <trkpt lat="42.76375" lon="0.26388">
        <ele>2251.5</ele>
        <time>2009-10-30T12:29:21Z</time>
      </trkpt>
      <trkpt lat="42.76378" lon="0.26382">
        <ele>2248.7</ele>
        <time>2009-10-30T12:29:33Z</time>
      </trkpt>
      <trkpt lat="42.7639" lon="0.26377">
        <ele>2245.8</ele>
        <time>2009-10-30T12:30:04Z</time>
      </trkpt>
      <trkpt lat="42.764" lon="0.2638">
        <ele>2245.3</ele>
        <time>2009-10-30T12:30:28Z</time>
      </trkpt>
      <trkpt lat="42.76405" lon="0.26387">
        <ele>2244.3</ele>
        <time>2009-10-30T12:30:44Z</time>
      </trkpt>
      <trkpt lat="42.76416" lon="0.26393">
        <ele>2243.9</ele>
        <time>2009-10-30T12:31:11Z</time>
      </trkpt>
      <trkpt lat="42.76427" lon="0.26399">
        <ele>2241</ele>
        <time>2009-10-30T12:31:41Z</time>
      </trkpt>
      <trkpt lat="42.7644" lon="0.264">
        <ele>2237.1</ele>
        <time>2009-10-30T12:32:12Z</time>
      </trkpt>
      <trkpt lat="42.76453" lon="0.26399">
        <ele>2232.8</ele>
        <time>2009-10-30T12:32:43Z</time>
      </trkpt>
      <trkpt lat="42.76467" lon="0.26397">
        <ele>2229.4</ele>
        <time>2009-10-30T12:33:17Z</time>
      </trkpt>
      <trkpt lat="42.76483" lon="0.26395">
        <ele>2228</ele>
        <time>2009-10-30T12:33:54Z</time>
      </trkpt>
      <trkpt lat="42.76493" lon="0.26391">
        <ele>2225.1</ele>
        <time>2009-10-30T12:34:19Z</time>
      </trkpt>
      <trkpt lat="42.76504" lon="0.2639">
        <ele>2221.3</ele>
        <time>2009-10-30T12:34:46Z</time>
      </trkpt>
      <trkpt lat="42.76518" lon="0.26389">
        <ele>2217.9</ele>
        <time>2009-10-30T12:35:19Z</time>
      </trkpt>
      <trkpt lat="42.76528" lon="0.26385">
        <ele>2213.1</ele>
        <time>2009-10-30T12:35:45Z</time>
      </trkpt>
      <trkpt lat="42.76543" lon="0.26385">
        <ele>2212.6</ele>
        <time>2009-10-30T12:36:21Z</time>
      </trkpt>
      <trkpt lat="42.76556" lon="0.26386">
        <ele>2208.8</ele>
        <time>2009-10-30T12:36:51Z</time>
      </trkpt>
      <trkpt lat="42.76566" lon="0.26385">
        <ele>2206.8</ele>
        <time>2009-10-30T12:37:16Z</time>
      </trkpt>
      <trkpt lat="42.76575" lon="0.26383">
        <ele>2202.5</ele>
        <time>2009-10-30T12:37:39Z</time>
      </trkpt>
      <trkpt lat="42.76587" lon="0.26383">
        <ele>2198.7</ele>
        <time>2009-10-30T12:38:07Z</time>
      </trkpt>
      <trkpt lat="42.76596" lon="0.26379">
        <ele>2196.3</ele>
        <time>2009-10-30T12:38:31Z</time>
      </trkpt>
      <trkpt lat="42.76604" lon="0.26371">
        <ele>2193.9</ele>
        <time>2009-10-30T12:38:54Z</time>
      </trkpt>
      <trkpt lat="42.76611" lon="0.26369">
        <ele>2191.5</ele>
        <time>2009-10-30T12:39:12Z</time>
      </trkpt>
      <trkpt lat="42.76617" lon="0.26364">
        <ele>2190.5</ele>
        <time>2009-10-30T12:39:28Z</time>
      </trkpt>
      <trkpt lat="42.76619" lon="0.26366">
        <ele>2188.6</ele>
        <time>2009-10-30T12:39:34Z</time>
      </trkpt>
      <trkpt lat="42.76628" lon="0.26365">
        <ele>2187.6</ele>
        <time>2009-10-30T12:39:55Z</time>
      </trkpt>
      <trkpt lat="42.76641" lon="0.26361">
        <ele>2184.7</ele>
        <time>2009-10-30T12:40:28Z</time>
      </trkpt>
      <trkpt lat="42.76653" lon="0.26361">
        <ele>2182.3</ele>
        <time>2009-10-30T12:40:56Z</time>
      </trkpt>
      <trkpt lat="42.76666" lon="0.26362">
        <ele>2180.4</ele>
        <time>2009-10-30T12:41:25Z</time>
      </trkpt>
      <trkpt lat="42.76675" lon="0.26361">
        <ele>2176.1</ele>
        <time>2009-10-30T12:41:48Z</time>
      </trkpt>
      <trkpt lat="42.76684" lon="0.26356">
        <ele>2174.2</ele>
        <time>2009-10-30T12:42:11Z</time>
      </trkpt>
      <trkpt lat="42.76696" lon="0.26353">
        <ele>2171.8</ele>
        <time>2009-10-30T12:42:39Z</time>
      </trkpt>
      <trkpt lat="42.76705" lon="0.26355">
        <ele>2168.4</ele>
        <time>2009-10-30T12:43:02Z</time>
      </trkpt>
      <trkpt lat="42.76715" lon="0.26358">
        <ele>2166.9</ele>
        <time>2009-10-30T12:43:26Z</time>
      </trkpt>
      <trkpt lat="42.76721" lon="0.26363">
        <ele>2166.9</ele>
        <time>2009-10-30T12:43:44Z</time>
      </trkpt>
      <trkpt lat="42.76724" lon="0.26363">
        <ele>2166.9</ele>
        <time>2009-10-30T12:43:50Z</time>
      </trkpt>
      <trkpt lat="42.76724" lon="0.26363">
        <ele>2166.5</ele>
        <time>2009-10-30T12:43:51Z</time>
      </trkpt>
      <trkpt lat="42.76725" lon="0.26365">
        <ele>2165</ele>
        <time>2009-10-30T12:43:56Z</time>
      </trkpt>
      <trkpt lat="42.76736" lon="0.26371">
        <ele>2162.6</ele>
        <time>2009-10-30T12:44:24Z</time>
      </trkpt>
      <trkpt lat="42.76744" lon="0.26372">
        <ele>2159.7</ele>
        <time>2009-10-30T12:44:44Z</time>
      </trkpt>
      <trkpt lat="42.76754" lon="0.26371">
        <ele>2155.9</ele>
        <time>2009-10-30T12:45:09Z</time>
      </trkpt>
      <trkpt lat="42.76762" lon="0.26378">
        <ele>2153.5</ele>
        <time>2009-10-30T12:45:31Z</time>
      </trkpt>
      <trkpt lat="42.76771" lon="0.26385">
        <ele>2151.1</ele>
        <time>2009-10-30T12:45:55Z</time>
      </trkpt>
      <trkpt lat="42.76782" lon="0.26388">
        <ele>2148.2</ele>
        <time>2009-10-30T12:46:22Z</time>
      </trkpt>
      <trkpt lat="42.76786" lon="0.26383">
        <ele>2144.8</ele>
        <time>2009-10-30T12:46:36Z</time>
      </trkpt>
      <trkpt lat="42.76787" lon="0.26386">
        <ele>2143.4</ele>
        <time>2009-10-30T12:46:43Z</time>
      </trkpt>
      <trkpt lat="42.76789" lon="0.26388">
        <ele>2142</ele>
        <time>2009-10-30T12:46:50Z</time>
      </trkpt>
      <trkpt lat="42.76792" lon="0.26391">
        <ele>2140</ele>
        <time>2009-10-30T12:46:59Z</time>
      </trkpt>
      <trkpt lat="42.76797" lon="0.26395">
        <ele>2137.6</ele>
        <time>2009-10-30T12:47:13Z</time>
      </trkpt>
      <trkpt lat="42.76799" lon="0.26397">
        <ele>2134.7</ele>
        <time>2009-10-30T12:47:21Z</time>
      </trkpt>
      <trkpt lat="42.76806" lon="0.26399">
        <ele>2132.8</ele>
        <time>2009-10-30T12:47:40Z</time>
      </trkpt>
      <trkpt lat="42.76803" lon="0.26406">
        <ele>2130.4</ele>
        <time>2009-10-30T12:47:54Z</time>
      </trkpt>
      <trkpt lat="42.7681" lon="0.26413">
        <ele>2127.1</ele>
        <time>2009-10-30T12:48:14Z</time>
      </trkpt>
      <trkpt lat="42.76817" lon="0.26418">
        <ele>2123.2</ele>
        <time>2009-10-30T12:48:36Z</time>
      </trkpt>
      <trkpt lat="42.76826" lon="0.26422">
        <ele>2121.3</ele>
        <time>2009-10-30T12:48:56Z</time>
      </trkpt>
      <trkpt lat="42.76836" lon="0.26426">
        <ele>2115.5</ele>
        <time>2009-10-30T12:49:24Z</time>
      </trkpt>
      <trkpt lat="42.76847" lon="0.26431">
        <ele>2115.5</ele>
        <time>2009-10-30T12:49:50Z</time>
      </trkpt>
      <trkpt lat="42.76856" lon="0.26439">
        <ele>2110.7</ele>
        <time>2009-10-30T12:50:18Z</time>
      </trkpt>
      <trkpt lat="42.76863" lon="0.26447">
        <ele>2106.9</ele>
        <time>2009-10-30T12:50:40Z</time>
      </trkpt>
      <trkpt lat="42.76864" lon="0.26459">
        <ele>2104.9</ele>
        <time>2009-10-30T12:51:00Z</time>
      </trkpt>
      <trkpt lat="42.76872" lon="0.26472">
        <ele>2101.1</ele>
        <time>2009-10-30T12:51:32Z</time>
      </trkpt>
      <trkpt lat="42.76881" lon="0.26482">
        <ele>2100.6</ele>
        <time>2009-10-30T12:51:57Z</time>
      </trkpt>
      <trkpt lat="42.7689" lon="0.26489">
        <ele>2098.7</ele>
        <time>2009-10-30T12:52:23Z</time>
      </trkpt>
      <trkpt lat="42.769" lon="0.26491">
        <ele>2095.3</ele>
        <time>2009-10-30T12:52:46Z</time>
      </trkpt>
      <trkpt lat="42.76908" lon="0.26493">
        <ele>2092.4</ele>
        <time>2009-10-30T12:53:07Z</time>
      </trkpt>
      <trkpt lat="42.76916" lon="0.26495">
        <ele>2088.1</ele>
        <time>2009-10-30T12:53:27Z</time>
      </trkpt>
      <trkpt lat="42.76926" lon="0.26494">
        <ele>2085.2</ele>
        <time>2009-10-30T12:53:51Z</time>
      </trkpt>
      <trkpt lat="42.76933" lon="0.26492">
        <ele>2081.4</ele>
        <time>2009-10-30T12:54:10Z</time>
      </trkpt>
      <trkpt lat="42.76944" lon="0.2649">
        <ele>2079</ele>
        <time>2009-10-30T12:54:36Z</time>
      </trkpt>
      <trkpt lat="42.76951" lon="0.26492">
        <ele>2076.6</ele>
        <time>2009-10-30T12:54:54Z</time>
      </trkpt>
      <trkpt lat="42.7696" lon="0.26493">
        <ele>2072.7</ele>
        <time>2009-10-30T12:55:16Z</time>
      </trkpt>
      <trkpt lat="42.7697" lon="0.26493">
        <ele>2068.9</ele>
        <time>2009-10-30T12:55:41Z</time>
      </trkpt>
      <trkpt lat="42.76979" lon="0.26496">
        <ele>2065.5</ele>
        <time>2009-10-30T12:56:02Z</time>
      </trkpt>
      <trkpt lat="42.76987" lon="0.26496">
        <ele>2062.6</ele>
        <time>2009-10-30T12:56:24Z</time>
      </trkpt>
      <trkpt lat="42.76995" lon="0.26487">
        <ele>2061.2</ele>
        <time>2009-10-30T12:56:48Z</time>
      </trkpt>
      <trkpt lat="42.77008" lon="0.26493">
        <ele>2058.8</ele>
        <time>2009-10-30T12:57:19Z</time>
      </trkpt>
      <trkpt lat="42.77015" lon="0.26499">
        <ele>2053.5</ele>
        <time>2009-10-30T12:57:41Z</time>
      </trkpt>
      <trkpt lat="42.77024" lon="0.26506">
        <ele>2051.6</ele>
        <time>2009-10-30T12:58:06Z</time>
      </trkpt>
      <trkpt lat="42.77032" lon="0.26513">
        <ele>2048.2</ele>
        <time>2009-10-30T12:58:30Z</time>
      </trkpt>
      <trkpt lat="42.7704" lon="0.26517">
        <ele>2045.8</ele>
        <time>2009-10-30T12:58:49Z</time>
      </trkpt>
      <trkpt lat="42.77044" lon="0.26523">
        <ele>2044.9</ele>
        <time>2009-10-30T12:59:04Z</time>
      </trkpt>
      <trkpt lat="42.77051" lon="0.2653">
        <ele>2041.5</ele>
        <time>2009-10-30T12:59:25Z</time>
      </trkpt>
      <trkpt lat="42.77057" lon="0.26533">
        <ele>2039.6</ele>
        <time>2009-10-30T12:59:42Z</time>
      </trkpt>
      <trkpt lat="42.77062" lon="0.26539">
        <ele>2038.6</ele>
        <time>2009-10-30T12:59:57Z</time>
      </trkpt>
      <trkpt lat="42.77071" lon="0.26547">
        <ele>2038.6</ele>
        <time>2009-10-30T13:00:21Z</time>
      </trkpt>
      <trkpt lat="42.77079" lon="0.26554">
        <ele>2034.8</ele>
        <time>2009-10-30T13:00:45Z</time>
      </trkpt>
      <trkpt lat="42.77086" lon="0.2656">
        <ele>2031.9</ele>
        <time>2009-10-30T13:01:06Z</time>
      </trkpt>
      <trkpt lat="42.77091" lon="0.26567">
        <ele>2029.5</ele>
        <time>2009-10-30T13:01:23Z</time>
      </trkpt>
      <trkpt lat="42.77096" lon="0.26573">
        <ele>2026.1</ele>
        <time>2009-10-30T13:01:39Z</time>
      </trkpt>
      <trkpt lat="42.77095" lon="0.26578">
        <ele>2024.7</ele>
        <time>2009-10-30T13:01:48Z</time>
      </trkpt>
      <trkpt lat="42.77095" lon="0.26577">
        <ele>2025.6</ele>
        <time>2009-10-30T13:01:50Z</time>
      </trkpt>
      <trkpt lat="42.77095" lon="0.26577">
        <ele>2025.2</ele>
        <time>2009-10-30T13:01:51Z</time>
      </trkpt>
      <trkpt lat="42.77094" lon="0.26581">
        <ele>2023.7</ele>
        <time>2009-10-30T13:01:58Z</time>
      </trkpt>
      <trkpt lat="42.77097" lon="0.26588">
        <ele>2020.8</ele>
        <time>2009-10-30T13:02:14Z</time>
      </trkpt>
      <trkpt lat="42.771" lon="0.26596">
        <ele>2017</ele>
        <time>2009-10-30T13:02:31Z</time>
      </trkpt>
      <trkpt lat="42.77103" lon="0.26599">
        <ele>2014.6</ele>
        <time>2009-10-30T13:02:41Z</time>
      </trkpt>
      <trkpt lat="42.7711" lon="0.26601">
        <ele>2011.2</ele>
        <time>2009-10-30T13:02:58Z</time>
      </trkpt>
      <trkpt lat="42.77117" lon="0.26604">
        <ele>2009.8</ele>
        <time>2009-10-30T13:03:16Z</time>
      </trkpt>
      <trkpt lat="42.77125" lon="0.26602">
        <ele>2005.9</ele>
        <time>2009-10-30T13:03:36Z</time>
      </trkpt>
      <trkpt lat="42.77134" lon="0.26599">
        <ele>2004.5</ele>
        <time>2009-10-30T13:03:57Z</time>
      </trkpt>
      <trkpt lat="42.77144" lon="0.26601">
        <ele>2001.1</ele>
        <time>2009-10-30T13:04:22Z</time>
      </trkpt>
      <trkpt lat="42.77147" lon="0.26603">
        <ele>1999.7</ele>
        <time>2009-10-30T13:04:30Z</time>
      </trkpt>
      <trkpt lat="42.77147" lon="0.26603">
        <ele>1998.7</ele>
        <time>2009-10-30T13:04:32Z</time>
      </trkpt>
      <trkpt lat="42.77146" lon="0.26603">
        <ele>1999.2</ele>
        <time>2009-10-30T13:04:34Z</time>
      </trkpt>
      <trkpt lat="42.77148" lon="0.26603">
        <ele>1998.7</ele>
        <time>2009-10-30T13:04:38Z</time>
      </trkpt>
      <trkpt lat="42.77155" lon="0.26606">
        <ele>1994.9</ele>
        <time>2009-10-30T13:04:56Z</time>
      </trkpt>
      <trkpt lat="42.77156" lon="0.26617">
        <ele>1992</ele>
        <time>2009-10-30T13:05:15Z</time>
      </trkpt>
      <trkpt lat="42.77154" lon="0.26629">
        <ele>1988.1</ele>
        <time>2009-10-30T13:05:38Z</time>
      </trkpt>
      <trkpt lat="42.77156" lon="0.26639">
        <ele>1985.3</ele>
        <time>2009-10-30T13:05:57Z</time>
      </trkpt>
      <trkpt lat="42.77158" lon="0.26653">
        <ele>1980.5</ele>
        <time>2009-10-30T13:06:23Z</time>
      </trkpt>
      <trkpt lat="42.77162" lon="0.26662">
        <ele>1978</ele>
        <time>2009-10-30T13:06:42Z</time>
      </trkpt>
      <trkpt lat="42.77166" lon="0.26673">
        <ele>1975.2</ele>
        <time>2009-10-30T13:07:03Z</time>
      </trkpt>
      <trkpt lat="42.77165" lon="0.2668">
        <ele>1974.2</ele>
        <time>2009-10-30T13:07:15Z</time>
      </trkpt>
      <trkpt lat="42.77165" lon="0.26685">
        <ele>1972.3</ele>
        <time>2009-10-30T13:07:24Z</time>
      </trkpt>
      <trkpt lat="42.7717" lon="0.26686">
        <ele>1968.4</ele>
        <time>2009-10-30T13:07:38Z</time>
      </trkpt>
      <trkpt lat="42.77177" lon="0.26677">
        <ele>1966</ele>
        <time>2009-10-30T13:08:00Z</time>
      </trkpt>
      <trkpt lat="42.77182" lon="0.2667">
        <ele>1961.7</ele>
        <time>2009-10-30T13:08:19Z</time>
      </trkpt>
      <trkpt lat="42.77188" lon="0.26663">
        <ele>1960.3</ele>
        <time>2009-10-30T13:08:38Z</time>
      </trkpt>
      <trkpt lat="42.77195" lon="0.26659">
        <ele>1957.4</ele>
        <time>2009-10-30T13:08:56Z</time>
      </trkpt>
      <trkpt lat="42.77202" lon="0.2666">
        <ele>1953.1</ele>
        <time>2009-10-30T13:09:14Z</time>
      </trkpt>
      <trkpt lat="42.77212" lon="0.26663">
        <ele>1949.7</ele>
        <time>2009-10-30T13:09:39Z</time>
      </trkpt>
      <trkpt lat="42.77219" lon="0.26667">
        <ele>1946.8</ele>
        <time>2009-10-30T13:09:56Z</time>
      </trkpt>
      <trkpt lat="42.77226" lon="0.2667">
        <ele>1945.4</ele>
        <time>2009-10-30T13:10:14Z</time>
      </trkpt>
      <trkpt lat="42.77233" lon="0.26676">
        <ele>1943.4</ele>
        <time>2009-10-30T13:10:34Z</time>
      </trkpt>
      <trkpt lat="42.77238" lon="0.26682">
        <ele>1940.1</ele>
        <time>2009-10-30T13:10:50Z</time>
      </trkpt>
      <trkpt lat="42.77239" lon="0.26688">
        <ele>1939.6</ele>
        <time>2009-10-30T13:11:00Z</time>
      </trkpt>
      <trkpt lat="42.7724" lon="0.26689">
        <ele>1939.6</ele>
        <time>2009-10-30T13:11:03Z</time>
      </trkpt>
      <trkpt lat="42.77241" lon="0.26689">
        <ele>1939.1</ele>
        <time>2009-10-30T13:11:05Z</time>
      </trkpt>
      <trkpt lat="42.77243" lon="0.26689">
        <ele>1938.6</ele>
        <time>2009-10-30T13:11:10Z</time>
      </trkpt>
      <trkpt lat="42.7725" lon="0.26689">
        <ele>1934.3</ele>
        <time>2009-10-30T13:11:28Z</time>
      </trkpt>
      <trkpt lat="42.77258" lon="0.2669">
        <ele>1930.9</ele>
        <time>2009-10-30T13:11:48Z</time>
      </trkpt>
      <trkpt lat="42.77265" lon="0.26692">
        <ele>1929</ele>
        <time>2009-10-30T13:12:06Z</time>
      </trkpt>
      <trkpt lat="42.77275" lon="0.26697">
        <ele>1923.3</ele>
        <time>2009-10-30T13:12:32Z</time>
      </trkpt>
      <trkpt lat="42.77285" lon="0.26699">
        <ele>1919.9</ele>
        <time>2009-10-30T13:12:56Z</time>
      </trkpt>
      <trkpt lat="42.77293" lon="0.26702">
        <ele>1918.9</ele>
        <time>2009-10-30T13:13:15Z</time>
      </trkpt>
      <trkpt lat="42.773" lon="0.26701">
        <ele>1915.6</ele>
        <time>2009-10-30T13:13:34Z</time>
      </trkpt>
      <trkpt lat="42.7731" lon="0.26699">
        <ele>1912.2</ele>
        <time>2009-10-30T13:13:58Z</time>
      </trkpt>
      <trkpt lat="42.7732" lon="0.26699">
        <ele>1909.8</ele>
        <time>2009-10-30T13:14:20Z</time>
      </trkpt>
      <trkpt lat="42.77328" lon="0.26698">
        <ele>1906.4</ele>
        <time>2009-10-30T13:14:40Z</time>
      </trkpt>
      <trkpt lat="42.77335" lon="0.267">
        <ele>1904.5</ele>
        <time>2009-10-30T13:14:57Z</time>
      </trkpt>
      <trkpt lat="42.77342" lon="0.26699">
        <ele>1901.6</ele>
        <time>2009-10-30T13:15:15Z</time>
      </trkpt>
      <trkpt lat="42.77348" lon="0.26699">
        <ele>1896.8</ele>
        <time>2009-10-30T13:15:32Z</time>
      </trkpt>
      <trkpt lat="42.77354" lon="0.26696">
        <ele>1895.4</ele>
        <time>2009-10-30T13:15:47Z</time>
      </trkpt>
      <trkpt lat="42.77361" lon="0.26694">
        <ele>1891.5</ele>
        <time>2009-10-30T13:16:05Z</time>
      </trkpt>
      <trkpt lat="42.77365" lon="0.267">
        <ele>1887.7</ele>
        <time>2009-10-30T13:16:20Z</time>
      </trkpt>
      <trkpt lat="42.7737" lon="0.26703">
        <ele>1886.2</ele>
        <time>2009-10-30T13:16:35Z</time>
      </trkpt>
      <trkpt lat="42.77377" lon="0.26706">
        <ele>1882.9</ele>
        <time>2009-10-30T13:16:52Z</time>
      </trkpt>
      <trkpt lat="42.77383" lon="0.26707">
        <ele>1880.5</ele>
        <time>2009-10-30T13:17:06Z</time>
      </trkpt>
      <trkpt lat="42.77385" lon="0.26707">
        <ele>1878.6</ele>
        <time>2009-10-30T13:17:12Z</time>
      </trkpt>
      <trkpt lat="42.77387" lon="0.26709">
        <ele>1877.6</ele>
        <time>2009-10-30T13:17:18Z</time>
      </trkpt>
      <trkpt lat="42.7739" lon="0.26709">
        <ele>1876.6</ele>
        <time>2009-10-30T13:17:26Z</time>
      </trkpt>
      <trkpt lat="42.77392" lon="0.2671">
        <ele>1874.2</ele>
        <time>2009-10-30T13:17:33Z</time>
      </trkpt>
      <trkpt lat="42.77393" lon="0.26715">
        <ele>1871.3</ele>
        <time>2009-10-30T13:17:43Z</time>
      </trkpt>
      <trkpt lat="42.77394" lon="0.26718">
        <ele>1870.4</ele>
        <time>2009-10-30T13:17:49Z</time>
      </trkpt>
      <trkpt lat="42.77393" lon="0.26722">
        <ele>1868</ele>
        <time>2009-10-30T13:17:57Z</time>
      </trkpt>
      <trkpt lat="42.77387" lon="0.26726">
        <ele>1866.1</ele>
        <time>2009-10-30T13:18:13Z</time>
      </trkpt>
      <trkpt lat="42.77384" lon="0.26733">
        <ele>1864.1</ele>
        <time>2009-10-30T13:18:27Z</time>
      </trkpt>
      <trkpt lat="42.77388" lon="0.26737">
        <ele>1861.7</ele>
        <time>2009-10-30T13:18:38Z</time>
      </trkpt>
      <trkpt lat="42.7739" lon="0.2674">
        <ele>1858.4</ele>
        <time>2009-10-30T13:18:48Z</time>
      </trkpt>
      <trkpt lat="42.77394" lon="0.26746">
        <ele>1853.6</ele>
        <time>2009-10-30T13:19:06Z</time>
      </trkpt>
      <trkpt lat="42.77402" lon="0.26746">
        <ele>1852.1</ele>
        <time>2009-10-30T13:19:24Z</time>
      </trkpt>
      <trkpt lat="42.77406" lon="0.2675">
        <ele>1850.7</ele>
        <time>2009-10-30T13:19:35Z</time>
      </trkpt>
      <trkpt lat="42.77403" lon="0.26755">
        <ele>1848.3</ele>
        <time>2009-10-30T13:19:48Z</time>
      </trkpt>
      <trkpt lat="42.774" lon="0.26763">
        <ele>1845.4</ele>
        <time>2009-10-30T13:20:04Z</time>
      </trkpt>
      <trkpt lat="42.77407" lon="0.26768">
        <ele>1842</ele>
        <time>2009-10-30T13:20:24Z</time>
      </trkpt>
      <trkpt lat="42.77415" lon="0.2677">
        <ele>1838.2</ele>
        <time>2009-10-30T13:20:45Z</time>
      </trkpt>
      <trkpt lat="42.77426" lon="0.26768">
        <ele>1834.8</ele>
        <time>2009-10-30T13:21:10Z</time>
      </trkpt>
      <trkpt lat="42.77438" lon="0.26766">
        <ele>1832.4</ele>
        <time>2009-10-30T13:21:39Z</time>
      </trkpt>
      <trkpt lat="42.77444" lon="0.26767">
        <ele>1830</ele>
        <time>2009-10-30T13:21:53Z</time>
      </trkpt>
      <trkpt lat="42.7745" lon="0.26767">
        <ele>1827.1</ele>
        <time>2009-10-30T13:22:09Z</time>
      </trkpt>
      <trkpt lat="42.77456" lon="0.26769">
        <ele>1824.2</ele>
        <time>2009-10-30T13:22:25Z</time>
      </trkpt>
      <trkpt lat="42.77464" lon="0.26764">
        <ele>1819.9</ele>
        <time>2009-10-30T13:22:46Z</time>
      </trkpt>
      <trkpt lat="42.7747" lon="0.2676">
        <ele>1816.5</ele>
        <time>2009-10-30T13:23:02Z</time>
      </trkpt>
      <trkpt lat="42.77471" lon="0.26759">
        <ele>1815.6</ele>
        <time>2009-10-30T13:23:07Z</time>
      </trkpt>
      <trkpt lat="42.77474" lon="0.26758">
        <ele>1813.7</ele>
        <time>2009-10-30T13:23:15Z</time>
      </trkpt>
      <trkpt lat="42.77475" lon="0.26763">
        <ele>1812.2</ele>
        <time>2009-10-30T13:23:23Z</time>
      </trkpt>
      <trkpt lat="42.77478" lon="0.26769">
        <ele>1808.9</ele>
        <time>2009-10-30T13:23:38Z</time>
      </trkpt>
      <trkpt lat="42.77482" lon="0.26778">
        <ele>1805</ele>
        <time>2009-10-30T13:23:57Z</time>
      </trkpt>
      <trkpt lat="42.77487" lon="0.26781">
        <ele>1800.7</ele>
        <time>2009-10-30T13:24:12Z</time>
      </trkpt>
      <trkpt lat="42.77489" lon="0.26782">
        <ele>1799.2</ele>
        <time>2009-10-30T13:24:19Z</time>
      </trkpt>
      <trkpt lat="42.77488" lon="0.26785">
        <ele>1798.3</ele>
        <time>2009-10-30T13:24:26Z</time>
      </trkpt>
      <trkpt lat="42.77488" lon="0.26788">
        <ele>1795.9</ele>
        <time>2009-10-30T13:24:33Z</time>
      </trkpt>
      <trkpt lat="42.77489" lon="0.26789">
        <ele>1795.4</ele>
        <time>2009-10-30T13:24:36Z</time>
      </trkpt>
      <trkpt lat="42.77491" lon="0.26793">
        <ele>1792</ele>
        <time>2009-10-30T13:24:47Z</time>
      </trkpt>
      <trkpt lat="42.77494" lon="0.26801">
        <ele>1789.6</ele>
        <time>2009-10-30T13:25:03Z</time>
      </trkpt>
      <trkpt lat="42.77491" lon="0.26806">
        <ele>1786.7</ele>
        <time>2009-10-30T13:25:15Z</time>
      </trkpt>
      <trkpt lat="42.77492" lon="0.26813">
        <ele>1784.3</ele>
        <time>2009-10-30T13:25:29Z</time>
      </trkpt>
      <trkpt lat="42.77498" lon="0.26819">
        <ele>1781.9</ele>
        <time>2009-10-30T13:25:46Z</time>
      </trkpt>
      <trkpt lat="42.77502" lon="0.26826">
        <ele>1779.1</ele>
        <time>2009-10-30T13:26:02Z</time>
      </trkpt>
      <trkpt lat="42.77509" lon="0.26828">
        <ele>1774.7</ele>
        <time>2009-10-30T13:26:20Z</time>
      </trkpt>
      <trkpt lat="42.77517" lon="0.2683">
        <ele>1771.4</ele>
        <time>2009-10-30T13:26:40Z</time>
      </trkpt>
      <trkpt lat="42.77523" lon="0.26836">
        <ele>1769</ele>
        <time>2009-10-30T13:26:58Z</time>
      </trkpt>
      <trkpt lat="42.77533" lon="0.26842">
        <ele>1765.6</ele>
        <time>2009-10-30T13:27:24Z</time>
      </trkpt>
      <trkpt lat="42.77539" lon="0.26848">
        <ele>1763.7</ele>
        <time>2009-10-30T13:27:42Z</time>
      </trkpt>
      <trkpt lat="42.77549" lon="0.26853">
        <ele>1762.2</ele>
        <time>2009-10-30T13:28:05Z</time>
      </trkpt>
      <trkpt lat="42.77556" lon="0.2686">
        <ele>1758.4</ele>
        <time>2009-10-30T13:28:27Z</time>
      </trkpt>
      <trkpt lat="42.77563" lon="0.26867">
        <ele>1754.1</ele>
        <time>2009-10-30T13:28:48Z</time>
      </trkpt>
      <trkpt lat="42.77571" lon="0.26871">
        <ele>1751.2</ele>
        <time>2009-10-30T13:29:10Z</time>
      </trkpt>
      <trkpt lat="42.77579" lon="0.26875">
        <ele>1748.3</ele>
        <time>2009-10-30T13:29:30Z</time>
      </trkpt>
      <trkpt lat="42.77588" lon="0.26881">
        <ele>1746.4</ele>
        <time>2009-10-30T13:29:53Z</time>
      </trkpt>
      <trkpt lat="42.77598" lon="0.2689">
        <ele>1742.5</ele>
        <time>2009-10-30T13:30:22Z</time>
      </trkpt>
      <trkpt lat="42.77608" lon="0.26896">
        <ele>1740.1</ele>
        <time>2009-10-30T13:30:49Z</time>
      </trkpt>
      <trkpt lat="42.77617" lon="0.26902">
        <ele>1737.7</ele>
        <time>2009-10-30T13:31:12Z</time>
      </trkpt>
      <trkpt lat="42.77624" lon="0.26908">
        <ele>1733.9</ele>
        <time>2009-10-30T13:31:32Z</time>
      </trkpt>
      <trkpt lat="42.77633" lon="0.26913">
        <ele>1730.5</ele>
        <time>2009-10-30T13:31:56Z</time>
      </trkpt>
      <trkpt lat="42.77642" lon="0.26917">
        <ele>1728.6</ele>
        <time>2009-10-30T13:32:17Z</time>
      </trkpt>
      <trkpt lat="42.7765" lon="0.26923">
        <ele>1726.2</ele>
        <time>2009-10-30T13:32:39Z</time>
      </trkpt>
      <trkpt lat="42.77656" lon="0.26929">
        <ele>1722.8</ele>
        <time>2009-10-30T13:32:57Z</time>
      </trkpt>
      <trkpt lat="42.77663" lon="0.26936">
        <ele>1720.4</ele>
        <time>2009-10-30T13:33:18Z</time>
      </trkpt>
      <trkpt lat="42.7767" lon="0.26942">
        <ele>1718.5</ele>
        <time>2009-10-30T13:33:38Z</time>
      </trkpt>
      <trkpt lat="42.77674" lon="0.26947">
        <ele>1716.1</ele>
        <time>2009-10-30T13:33:51Z</time>
      </trkpt>
      <trkpt lat="42.7768" lon="0.26952">
        <ele>1713.2</ele>
        <time>2009-10-30T13:34:09Z</time>
      </trkpt>
      <trkpt lat="42.77689" lon="0.26958">
        <ele>1709.8</ele>
        <time>2009-10-30T13:34:33Z</time>
      </trkpt>
      <trkpt lat="42.77697" lon="0.26956">
        <ele>1707.9</ele>
        <time>2009-10-30T13:34:50Z</time>
      </trkpt>
      <trkpt lat="42.77701" lon="0.26963">
        <ele>1705.5</ele>
        <time>2009-10-30T13:35:08Z</time>
      </trkpt>
      <trkpt lat="42.77706" lon="0.2697">
        <ele>1701.7</ele>
        <time>2009-10-30T13:35:25Z</time>
      </trkpt>
      <trkpt lat="42.77712" lon="0.26976">
        <ele>1698.3</ele>
        <time>2009-10-30T13:35:44Z</time>
      </trkpt>
      <trkpt lat="42.77716" lon="0.26982">
        <ele>1695.9</ele>
        <time>2009-10-30T13:35:59Z</time>
      </trkpt>
      <trkpt lat="42.7772" lon="0.26988">
        <ele>1691.6</ele>
        <time>2009-10-30T13:36:15Z</time>
      </trkpt>
      <trkpt lat="42.77727" lon="0.26993">
        <ele>1688.7</ele>
        <time>2009-10-30T13:36:34Z</time>
      </trkpt>
      <trkpt lat="42.77732" lon="0.26998">
        <ele>1685.3</ele>
        <time>2009-10-30T13:36:51Z</time>
      </trkpt>
      <trkpt lat="42.77736" lon="0.27003">
        <ele>1682</ele>
        <time>2009-10-30T13:37:04Z</time>
      </trkpt>
      <trkpt lat="42.77739" lon="0.2701">
        <ele>1677.2</ele>
        <time>2009-10-30T13:37:21Z</time>
      </trkpt>
      <trkpt lat="42.77741" lon="0.27019">
        <ele>1675.2</ele>
        <time>2009-10-30T13:37:37Z</time>
      </trkpt>
      <trkpt lat="42.77747" lon="0.27022">
        <ele>1672.8</ele>
        <time>2009-10-30T13:37:52Z</time>
      </trkpt>
      <trkpt lat="42.7775" lon="0.27028">
        <ele>1669.5</ele>
        <time>2009-10-30T13:38:06Z</time>
      </trkpt>
      <trkpt lat="42.77758" lon="0.27032">
        <ele>1667.5</ele>
        <time>2009-10-30T13:38:26Z</time>
      </trkpt>
      <trkpt lat="42.77766" lon="0.27034">
        <ele>1665.1</ele>
        <time>2009-10-30T13:38:46Z</time>
      </trkpt>
      <trkpt lat="42.77772" lon="0.27039">
        <ele>1661.3</ele>
        <time>2009-10-30T13:39:04Z</time>
      </trkpt>
      <trkpt lat="42.77777" lon="0.27038">
        <ele>1659.4</ele>
        <time>2009-10-30T13:39:15Z</time>
      </trkpt>
      <trkpt lat="42.77782" lon="0.27034">
        <ele>1658.9</ele>
        <time>2009-10-30T13:39:29Z</time>
      </trkpt>
      <trkpt lat="42.77792" lon="0.2703">
        <ele>1655.5</ele>
        <time>2009-10-30T13:39:55Z</time>
      </trkpt>
      <trkpt lat="42.77802" lon="0.27026">
        <ele>1654.1</ele>
        <time>2009-10-30T13:40:19Z</time>
      </trkpt>
      <trkpt lat="42.77809" lon="0.27032">
        <ele>1650.7</ele>
        <time>2009-10-30T13:40:39Z</time>
      </trkpt>
      <trkpt lat="42.77812" lon="0.27042">
        <ele>1648.3</ele>
        <time>2009-10-30T13:40:58Z</time>
      </trkpt>
      <trkpt lat="42.77811" lon="0.27054">
        <ele>1647.4</ele>
        <time>2009-10-30T13:41:19Z</time>
      </trkpt>
      <trkpt lat="42.77811" lon="0.27062">
        <ele>1645.4</ele>
        <time>2009-10-30T13:41:32Z</time>
      </trkpt>
      <trkpt lat="42.7781" lon="0.27064">
        <ele>1645.9</ele>
        <time>2009-10-30T13:41:36Z</time>
      </trkpt>
      <trkpt lat="42.77811" lon="0.27063">
        <ele>1640.6</ele>
        <time>2009-10-30T13:41:47Z</time>
      </trkpt>
      <trkpt lat="42.7781" lon="0.27064">
        <ele>1644</ele>
        <time>2009-10-30T13:41:54Z</time>
      </trkpt>
      <trkpt lat="42.77807" lon="0.27063">
        <ele>1643</ele>
        <time>2009-10-30T13:41:54Z</time>
      </trkpt>
      <trkpt lat="42.7781" lon="0.27064">
        <ele>1644.5</ele>
        <time>2009-10-30T13:41:54Z</time>
      </trkpt>
      <trkpt lat="42.77813" lon="0.27065">
        <ele>1644.5</ele>
        <time>2009-10-30T13:42:00Z</time>
      </trkpt>
      <trkpt lat="42.77813" lon="0.27065">
        <ele>1644.5</ele>
        <time>2009-10-30T13:42:00Z</time>
      </trkpt>
      <trkpt lat="42.77816" lon="0.27074">
        <ele>1643.5</ele>
        <time>2009-10-30T13:42:18Z</time>
      </trkpt>
      <trkpt lat="42.7782" lon="0.2708">
        <ele>1644</ele>
        <time>2009-10-30T13:42:31Z</time>
      </trkpt>
      <trkpt lat="42.77829" lon="0.27086">
        <ele>1642.5</ele>
        <time>2009-10-30T13:42:55Z</time>
      </trkpt>
      <trkpt lat="42.77841" lon="0.27087">
        <ele>1640.6</ele>
        <time>2009-10-30T13:43:23Z</time>
      </trkpt>
      <trkpt lat="42.77855" lon="0.27089">
        <ele>1640.1</ele>
        <time>2009-10-30T13:43:54Z</time>
      </trkpt>
      <trkpt lat="42.77867" lon="0.27096">
        <ele>1638.2</ele>
        <time>2009-10-30T13:44:25Z</time>
      </trkpt>
      <trkpt lat="42.77879" lon="0.27103">
        <ele>1637.3</ele>
        <time>2009-10-30T13:44:55Z</time>
      </trkpt>
      <trkpt lat="42.7789" lon="0.27108">
        <ele>1635.3</ele>
        <time>2009-10-30T13:45:21Z</time>
      </trkpt>
      <trkpt lat="42.77899" lon="0.27111">
        <ele>1633.4</ele>
        <time>2009-10-30T13:45:43Z</time>
      </trkpt>
      <trkpt lat="42.77909" lon="0.27115">
        <ele>1632</ele>
        <time>2009-10-30T13:46:08Z</time>
      </trkpt>
      <trkpt lat="42.7792" lon="0.2712">
        <ele>1627.6</ele>
        <time>2009-10-30T13:46:35Z</time>
      </trkpt>
      <trkpt lat="42.7793" lon="0.27132">
        <ele>1626.2</ele>
        <time>2009-10-30T13:47:06Z</time>
      </trkpt>
      <trkpt lat="42.77942" lon="0.2714">
        <ele>1623.8</ele>
        <time>2009-10-30T13:47:38Z</time>
      </trkpt>
      <trkpt lat="42.77952" lon="0.2715">
        <ele>1621.4</ele>
        <time>2009-10-30T13:48:06Z</time>
      </trkpt>
      <trkpt lat="42.77963" lon="0.27159">
        <ele>1620.4</ele>
        <time>2009-10-30T13:48:36Z</time>
      </trkpt>
      <trkpt lat="42.77975" lon="0.27167">
        <ele>1617.6</ele>
        <time>2009-10-30T13:49:07Z</time>
      </trkpt>
      <trkpt lat="42.77987" lon="0.27171">
        <ele>1616.6</ele>
        <time>2009-10-30T13:49:36Z</time>
      </trkpt>
      <trkpt lat="42.77998" lon="0.27174">
        <ele>1615.6</ele>
        <time>2009-10-30T13:50:00Z</time>
      </trkpt>
      <trkpt lat="42.78006" lon="0.27185">
        <ele>1612.7</ele>
        <time>2009-10-30T13:50:27Z</time>
      </trkpt>
      <trkpt lat="42.78015" lon="0.2719">
        <ele>1610.8</ele>
        <time>2009-10-30T13:50:51Z</time>
      </trkpt>
      <trkpt lat="42.78026" lon="0.27197">
        <ele>1608.9</ele>
        <time>2009-10-30T13:51:18Z</time>
      </trkpt>
      <trkpt lat="42.78037" lon="0.272">
        <ele>1607</ele>
        <time>2009-10-30T13:51:45Z</time>
      </trkpt>
      <trkpt lat="42.78046" lon="0.27209">
        <ele>1604.6</ele>
        <time>2009-10-30T13:52:11Z</time>
      </trkpt>
      <trkpt lat="42.78056" lon="0.27218">
        <ele>1600.7</ele>
        <time>2009-10-30T13:52:39Z</time>
      </trkpt>
      <trkpt lat="42.78064" lon="0.27222">
        <ele>1598.8</ele>
        <time>2009-10-30T13:52:59Z</time>
      </trkpt>
      <trkpt lat="42.7807" lon="0.2723">
        <ele>1595.9</ele>
        <time>2009-10-30T13:53:20Z</time>
      </trkpt>
      <trkpt lat="42.78077" lon="0.27232">
        <ele>1593</ele>
        <time>2009-10-30T13:53:38Z</time>
      </trkpt>
      <trkpt lat="42.78083" lon="0.27237">
        <ele>1590.6</ele>
        <time>2009-10-30T13:53:54Z</time>
      </trkpt>
      <trkpt lat="42.78089" lon="0.27249">
        <ele>1589.2</ele>
        <time>2009-10-30T13:54:19Z</time>
      </trkpt>
      <trkpt lat="42.78099" lon="0.27253">
        <ele>1587.8</ele>
        <time>2009-10-30T13:54:43Z</time>
      </trkpt>
      <trkpt lat="42.78109" lon="0.27256">
        <ele>1584.4</ele>
        <time>2009-10-30T13:55:07Z</time>
      </trkpt>
      <trkpt lat="42.78118" lon="0.27255">
        <ele>1582</ele>
        <time>2009-10-30T13:55:29Z</time>
      </trkpt>
      <trkpt lat="42.78127" lon="0.27248">
        <ele>1578.6</ele>
        <time>2009-10-30T13:55:53Z</time>
      </trkpt>
      <trkpt lat="42.78137" lon="0.2724">
        <ele>1575.7</ele>
        <time>2009-10-30T13:56:20Z</time>
      </trkpt>
      <trkpt lat="42.78146" lon="0.27236">
        <ele>1573.3</ele>
        <time>2009-10-30T13:56:42Z</time>
      </trkpt>
      <trkpt lat="42.78154" lon="0.27234">
        <ele>1570.9</ele>
        <time>2009-10-30T13:57:01Z</time>
      </trkpt>
      <trkpt lat="42.78162" lon="0.2723">
        <ele>1568</ele>
        <time>2009-10-30T13:57:22Z</time>
      </trkpt>
      <trkpt lat="42.78172" lon="0.27226">
        <ele>1565.2</ele>
        <time>2009-10-30T13:57:46Z</time>
      </trkpt>
      <trkpt lat="42.78183" lon="0.27227">
        <ele>1561.8</ele>
        <time>2009-10-30T13:58:13Z</time>
      </trkpt>
      <trkpt lat="42.78193" lon="0.27225">
        <ele>1558.4</ele>
        <time>2009-10-30T13:58:38Z</time>
      </trkpt>
      <trkpt lat="42.78202" lon="0.27223">
        <ele>1556</ele>
        <time>2009-10-30T13:58:59Z</time>
      </trkpt>
      <trkpt lat="42.78205" lon="0.27216">
        <ele>1552.7</ele>
        <time>2009-10-30T13:59:15Z</time>
      </trkpt>
      <trkpt lat="42.78213" lon="0.27212">
        <ele>1550.7</ele>
        <time>2009-10-30T13:59:34Z</time>
      </trkpt>
      <trkpt lat="42.7822" lon="0.27209">
        <ele>1548.8</ele>
        <time>2009-10-30T13:59:51Z</time>
      </trkpt>
      <trkpt lat="42.78229" lon="0.2721">
        <ele>1545.5</ele>
        <time>2009-10-30T14:00:13Z</time>
      </trkpt>
      <trkpt lat="42.78236" lon="0.27212">
        <ele>1542.1</ele>
        <time>2009-10-30T14:00:31Z</time>
      </trkpt>
      <trkpt lat="42.78243" lon="0.27213">
        <ele>1539.7</ele>
        <time>2009-10-30T14:00:49Z</time>
      </trkpt>
      <trkpt lat="42.78251" lon="0.27209">
        <ele>1536.8</ele>
        <time>2009-10-30T14:01:08Z</time>
      </trkpt>
      <trkpt lat="42.78259" lon="0.27213">
        <ele>1533.4</ele>
        <time>2009-10-30T14:01:30Z</time>
      </trkpt>
      <trkpt lat="42.78268" lon="0.27218">
        <ele>1529.1</ele>
        <time>2009-10-30T14:01:54Z</time>
      </trkpt>
      <trkpt lat="42.78278" lon="0.27226">
        <ele>1526.7</ele>
        <time>2009-10-30T14:02:21Z</time>
      </trkpt>
      <trkpt lat="42.78288" lon="0.27232">
        <ele>1525.3</ele>
        <time>2009-10-30T14:02:46Z</time>
      </trkpt>
      <trkpt lat="42.78297" lon="0.27235">
        <ele>1522.4</ele>
        <time>2009-10-30T14:03:08Z</time>
      </trkpt>
      <trkpt lat="42.78306" lon="0.27241">
        <ele>1519.5</ele>
        <time>2009-10-30T14:03:32Z</time>
      </trkpt>
      <trkpt lat="42.78314" lon="0.27242">
        <ele>1514.2</ele>
        <time>2009-10-30T14:03:54Z</time>
      </trkpt>
      <trkpt lat="42.78323" lon="0.27245">
        <ele>1510.8</ele>
        <time>2009-10-30T14:04:15Z</time>
      </trkpt>
      <trkpt lat="42.78331" lon="0.27254">
        <ele>1509.9</ele>
        <time>2009-10-30T14:04:41Z</time>
      </trkpt>
      <trkpt lat="42.78339" lon="0.27252">
        <ele>1508.4</ele>
        <time>2009-10-30T14:04:59Z</time>
      </trkpt>
      <trkpt lat="42.78348" lon="0.27255">
        <ele>1504.6</ele>
        <time>2009-10-30T14:05:23Z</time>
      </trkpt>
      <trkpt lat="42.78357" lon="0.27261">
        <ele>1499.8</ele>
        <time>2009-10-30T14:05:46Z</time>
      </trkpt>
      <trkpt lat="42.78366" lon="0.27265">
        <ele>1496.4</ele>
        <time>2009-10-30T14:06:09Z</time>
      </trkpt>
      <trkpt lat="42.78375" lon="0.2727">
        <ele>1494.5</ele>
        <time>2009-10-30T14:06:32Z</time>
      </trkpt>
      <trkpt lat="42.78383" lon="0.27275">
        <ele>1490.7</ele>
        <time>2009-10-30T14:06:55Z</time>
      </trkpt>
      <trkpt lat="42.78393" lon="0.27283">
        <ele>1485.4</ele>
        <time>2009-10-30T14:07:23Z</time>
      </trkpt>
      <trkpt lat="42.784" lon="0.27285">
        <ele>1483.9</ele>
        <time>2009-10-30T14:07:41Z</time>
      </trkpt>
      <trkpt lat="42.78407" lon="0.27282">
        <ele>1479.1</ele>
        <time>2009-10-30T14:08:00Z</time>
      </trkpt>
      <trkpt lat="42.78414" lon="0.27289">
        <ele>1477.2</ele>
        <time>2009-10-30T14:08:20Z</time>
      </trkpt>
      <trkpt lat="42.78419" lon="0.273">
        <ele>1475.3</ele>
        <time>2009-10-30T14:08:44Z</time>
      </trkpt>
      <trkpt lat="42.78426" lon="0.27309">
        <ele>1471.4</ele>
        <time>2009-10-30T14:09:07Z</time>
      </trkpt>
      <trkpt lat="42.78434" lon="0.27313">
        <ele>1467.6</ele>
        <time>2009-10-30T14:09:28Z</time>
      </trkpt>
      <trkpt lat="42.78441" lon="0.27317">
        <ele>1463.7</ele>
        <time>2009-10-30T14:09:47Z</time>
      </trkpt>
      <trkpt lat="42.78447" lon="0.27329">
        <ele>1460.9</ele>
        <time>2009-10-30T14:10:11Z</time>
      </trkpt>
      <trkpt lat="42.78456" lon="0.27332">
        <ele>1458.5</ele>
        <time>2009-10-30T14:10:33Z</time>
      </trkpt>
      <trkpt lat="42.78465" lon="0.27336">
        <ele>1454.1</ele>
        <time>2009-10-30T14:10:57Z</time>
      </trkpt>
      <trkpt lat="42.78474" lon="0.27341">
        <ele>1450.8</ele>
        <time>2009-10-30T14:11:21Z</time>
      </trkpt>
      <trkpt lat="42.78487" lon="0.2735">
        <ele>1449.3</ele>
        <time>2009-10-30T14:11:54Z</time>
      </trkpt>
      <trkpt lat="42.785" lon="0.27363">
        <ele>1449.3</ele>
        <time>2009-10-30T14:12:32Z</time>
      </trkpt>
      <trkpt lat="42.78513" lon="0.27373">
        <ele>1447.4</ele>
        <time>2009-10-30T14:13:06Z</time>
      </trkpt>
      <trkpt lat="42.78527" lon="0.27383">
        <ele>1446</ele>
        <time>2009-10-30T14:13:42Z</time>
      </trkpt>
      <trkpt lat="42.78539" lon="0.27395">
        <ele>1443.6</ele>
        <time>2009-10-30T14:14:18Z</time>
      </trkpt>
      <trkpt lat="42.78552" lon="0.27405">
        <ele>1439.2</ele>
        <time>2009-10-30T14:14:53Z</time>
      </trkpt>
      <trkpt lat="42.78566" lon="0.27416">
        <ele>1435.9</ele>
        <time>2009-10-30T14:15:30Z</time>
      </trkpt>
      <trkpt lat="42.7858" lon="0.27422">
        <ele>1433.9</ele>
        <time>2009-10-30T14:16:04Z</time>
      </trkpt>
      <trkpt lat="42.78592" lon="0.27426">
        <ele>1430.1</ele>
        <time>2009-10-30T14:16:33Z</time>
      </trkpt>
      <trkpt lat="42.78604" lon="0.27437">
        <ele>1427.2</ele>
        <time>2009-10-30T14:17:06Z</time>
      </trkpt>
      <trkpt lat="42.78613" lon="0.27449">
        <ele>1422.9</ele>
        <time>2009-10-30T14:17:37Z</time>
      </trkpt>
      <trkpt lat="42.78618" lon="0.2746">
        <ele>1419</ele>
        <time>2009-10-30T14:18:01Z</time>
      </trkpt>
      <trkpt lat="42.78625" lon="0.27464">
        <ele>1416.2</ele>
        <time>2009-10-30T14:18:18Z</time>
      </trkpt>
      <trkpt lat="42.78633" lon="0.27466">
        <ele>1412.3</ele>
        <time>2009-10-30T14:18:39Z</time>
      </trkpt>
      <trkpt lat="42.78641" lon="0.2747">
        <ele>1408</ele>
        <time>2009-10-30T14:19:01Z</time>
      </trkpt>
      <trkpt lat="42.78647" lon="0.27475">
        <ele>1403.7</ele>
        <time>2009-10-30T14:19:20Z</time>
      </trkpt>
      <trkpt lat="42.78655" lon="0.27478">
        <ele>1400.3</ele>
        <time>2009-10-30T14:19:38Z</time>
      </trkpt>
      <trkpt lat="42.78663" lon="0.27482">
        <ele>1397.4</ele>
        <time>2009-10-30T14:20:00Z</time>
      </trkpt>
      <trkpt lat="42.78669" lon="0.27484">
        <ele>1394.5</ele>
        <time>2009-10-30T14:20:15Z</time>
      </trkpt>
      <trkpt lat="42.78675" lon="0.27484">
        <ele>1391.6</ele>
        <time>2009-10-30T14:20:30Z</time>
      </trkpt>
      <trkpt lat="42.78681" lon="0.27487">
        <ele>1388.3</ele>
        <time>2009-10-30T14:20:45Z</time>
      </trkpt>
      <trkpt lat="42.78689" lon="0.2748">
        <ele>1384.9</ele>
        <time>2009-10-30T14:21:09Z</time>
      </trkpt>
      <trkpt lat="42.78697" lon="0.27484">
        <ele>1382.5</ele>
        <time>2009-10-30T14:21:30Z</time>
      </trkpt>
      <trkpt lat="42.78706" lon="0.27485">
        <ele>1379.1</ele>
        <time>2009-10-30T14:21:51Z</time>
      </trkpt>
      <trkpt lat="42.78714" lon="0.27486">
        <ele>1375.8</ele>
        <time>2009-10-30T14:22:11Z</time>
      </trkpt>
      <trkpt lat="42.78722" lon="0.27488">
        <ele>1372.4</ele>
        <time>2009-10-30T14:22:31Z</time>
      </trkpt>
      <trkpt lat="42.78733" lon="0.27495">
        <ele>1369.1</ele>
        <time>2009-10-30T14:23:00Z</time>
      </trkpt>
      <trkpt lat="42.78742" lon="0.27501">
        <ele>1365.7</ele>
        <time>2009-10-30T14:23:23Z</time>
      </trkpt>
      <trkpt lat="42.7875" lon="0.27501">
        <ele>1361.4</ele>
        <time>2009-10-30T14:23:45Z</time>
      </trkpt>
      <trkpt lat="42.78759" lon="0.27507">
        <ele>1358</ele>
        <time>2009-10-30T14:24:09Z</time>
      </trkpt>
      <trkpt lat="42.78765" lon="0.27508">
        <ele>1355.1</ele>
        <time>2009-10-30T14:24:24Z</time>
      </trkpt>
      <trkpt lat="42.78777" lon="0.27513">
        <ele>1352.2</ele>
        <time>2009-10-30T14:24:52Z</time>
      </trkpt>
      <trkpt lat="42.78785" lon="0.27522">
        <ele>1348.4</ele>
        <time>2009-10-30T14:25:18Z</time>
      </trkpt>
      <trkpt lat="42.78791" lon="0.27522">
        <ele>1346</ele>
        <time>2009-10-30T14:25:31Z</time>
      </trkpt>
      <trkpt lat="42.788" lon="0.2752">
        <ele>1341.7</ele>
        <time>2009-10-30T14:25:54Z</time>
      </trkpt>
      <trkpt lat="42.78812" lon="0.27527">
        <ele>1339.3</ele>
        <time>2009-10-30T14:26:24Z</time>
      </trkpt>
      <trkpt lat="42.78821" lon="0.27534">
        <ele>1335.4</ele>
        <time>2009-10-30T14:26:50Z</time>
      </trkpt>
      <trkpt lat="42.7883" lon="0.2754">
        <ele>1333.5</ele>
        <time>2009-10-30T14:27:13Z</time>
      </trkpt>
      <trkpt lat="42.78842" lon="0.27549">
        <ele>1331.6</ele>
        <time>2009-10-30T14:27:45Z</time>
      </trkpt>
      <trkpt lat="42.78851" lon="0.27555">
        <ele>1326.8</ele>
        <time>2009-10-30T14:28:11Z</time>
      </trkpt>
      <trkpt lat="42.7886" lon="0.27564">
        <ele>1324.4</ele>
        <time>2009-10-30T14:28:38Z</time>
      </trkpt>
      <trkpt lat="42.78869" lon="0.27573">
        <ele>1322.4</ele>
        <time>2009-10-30T14:28:51Z</time>
      </trkpt>
      <trkpt lat="42.78868" lon="0.27567">
        <ele>1320.5</ele>
        <time>2009-10-30T14:29:04Z</time>
      </trkpt>
      <trkpt lat="42.78866" lon="0.27563">
        <ele>1320.5</ele>
        <time>2009-10-30T14:29:17Z</time>
      </trkpt>
      <trkpt lat="42.78867" lon="0.27563">
        <ele>1321</ele>
        <time>2009-10-30T14:29:30Z</time>
      </trkpt>
      <trkpt lat="42.78867" lon="0.27553">
        <ele>1320</ele>
        <time>2009-10-30T14:29:43Z</time>
      </trkpt>
      <trkpt lat="42.78878" lon="0.27563">
        <ele>1317.1</ele>
        <time>2009-10-30T14:29:56Z</time>
      </trkpt>
      <trkpt lat="42.78889" lon="0.27578">
        <ele>1315.7</ele>
        <time>2009-10-30T14:30:09Z</time>
      </trkpt>
      <trkpt lat="42.789" lon="0.27593">
        <ele>1312.3</ele>
        <time>2009-10-30T14:30:22Z</time>
      </trkpt>
      <trkpt lat="42.78908" lon="0.2761">
        <ele>1310.4</ele>
        <time>2009-10-30T14:30:35Z</time>
      </trkpt>
      <trkpt lat="42.78915" lon="0.2763">
        <ele>1309</ele>
        <time>2009-10-30T14:30:48Z</time>
      </trkpt>
      <trkpt lat="42.78921" lon="0.27651">
        <ele>1308</ele>
        <time>2009-10-30T14:31:01Z</time>
      </trkpt>
      <trkpt lat="42.78927" lon="0.27669">
        <ele>1305.6</ele>
        <time>2009-10-30T14:31:14Z</time>
      </trkpt>
      <trkpt lat="42.78934" lon="0.27688">
        <ele>1304.2</ele>
        <time>2009-10-30T14:31:27Z</time>
      </trkpt>
      <trkpt lat="42.78939" lon="0.27706">
        <ele>1303.2</ele>
        <time>2009-10-30T14:31:40Z</time>
      </trkpt>
      <trkpt lat="42.78947" lon="0.27716">
        <ele>1300.8</ele>
        <time>2009-10-30T14:31:53Z</time>
      </trkpt>
      <trkpt lat="42.78954" lon="0.27725">
        <ele>1300.8</ele>
        <time>2009-10-30T14:32:06Z</time>
      </trkpt>
      <trkpt lat="42.78962" lon="0.27738">
        <ele>1298.4</ele>
        <time>2009-10-30T14:32:19Z</time>
      </trkpt>
      <trkpt lat="42.78967" lon="0.27749">
        <ele>1294.6</ele>
        <time>2009-10-30T14:32:32Z</time>
      </trkpt>
      <trkpt lat="42.78975" lon="0.27757">
        <ele>1292.1</ele>
        <time>2009-10-30T14:32:45Z</time>
      </trkpt>
      <trkpt lat="42.78987" lon="0.27761">
        <ele>1289.7</ele>
        <time>2009-10-30T14:32:58Z</time>
      </trkpt>
      <trkpt lat="42.79002" lon="0.27774">
        <ele>1287.3</ele>
        <time>2009-10-30T14:33:11Z</time>
      </trkpt>
      <trkpt lat="42.79015" lon="0.27781">
        <ele>1284.9</ele>
        <time>2009-10-30T14:33:24Z</time>
      </trkpt>
      <trkpt lat="42.79025" lon="0.2778">
        <ele>1282.5</ele>
        <time>2009-10-30T14:33:37Z</time>
      </trkpt>
      <trkpt lat="42.79034" lon="0.27789">
        <ele>1279.7</ele>
        <time>2009-10-30T14:33:50Z</time>
      </trkpt>
      <trkpt lat="42.79041" lon="0.27796">
        <ele>1278.2</ele>
        <time>2009-10-30T14:34:03Z</time>
      </trkpt>
      <trkpt lat="42.79052" lon="0.27809">
        <ele>1276.8</ele>
        <time>2009-10-30T14:34:16Z</time>
      </trkpt>
      <trkpt lat="42.79062" lon="0.27822">
        <ele>1275.3</ele>
        <time>2009-10-30T14:34:29Z</time>
      </trkpt>
      <trkpt lat="42.79073" lon="0.27834">
        <ele>1270</ele>
        <time>2009-10-30T14:34:42Z</time>
      </trkpt>
      <trkpt lat="42.79081" lon="0.27847">
        <ele>1267.6</ele>
        <time>2009-10-30T14:34:55Z</time>
      </trkpt>
      <trkpt lat="42.7909" lon="0.27859">
        <ele>1264.8</ele>
        <time>2009-10-30T14:35:08Z</time>
      </trkpt>
      <trkpt lat="42.79097" lon="0.27871">
        <ele>1260.4</ele>
        <time>2009-10-30T14:35:21Z</time>
      </trkpt>
      <trkpt lat="42.791" lon="0.27879">
        <ele>1258.5</ele>
        <time>2009-10-30T14:35:34Z</time>
      </trkpt>
      <trkpt lat="42.79107" lon="0.27892">
        <ele>1257.1</ele>
        <time>2009-10-30T14:35:47Z</time>
      </trkpt>
      <trkpt lat="42.79114" lon="0.279">
        <ele>1255.1</ele>
        <time>2009-10-30T14:36:00Z</time>
      </trkpt>
      <trkpt lat="42.79125" lon="0.27903">
        <ele>1253.2</ele>
        <time>2009-10-30T14:36:13Z</time>
      </trkpt>
      <trkpt lat="42.79135" lon="0.27917">
        <ele>1250.8</ele>
        <time>2009-10-30T14:36:26Z</time>
      </trkpt>
      <trkpt lat="42.79142" lon="0.27931">
        <ele>1247</ele>
        <time>2009-10-30T14:36:39Z</time>
      </trkpt>
      <trkpt lat="42.79141" lon="0.27948">
        <ele>1245.5</ele>
        <time>2009-10-30T14:36:52Z</time>
      </trkpt>
      <trkpt lat="42.79141" lon="0.27966">
        <ele>1240.7</ele>
        <time>2009-10-30T14:37:05Z</time>
      </trkpt>
      <trkpt lat="42.7914" lon="0.27983">
        <ele>1236.4</ele>
        <time>2009-10-30T14:37:18Z</time>
      </trkpt>
      <trkpt lat="42.79136" lon="0.27997">
        <ele>1235</ele>
        <time>2009-10-30T14:37:31Z</time>
      </trkpt>
      <trkpt lat="42.79136" lon="0.28008">
        <ele>1231.1</ele>
        <time>2009-10-30T14:37:44Z</time>
      </trkpt>
      <trkpt lat="42.79136" lon="0.28012">
        <ele>1229.7</ele>
        <time>2009-10-30T14:37:57Z</time>
      </trkpt>
      <trkpt lat="42.79136" lon="0.28021">
        <ele>1227.7</ele>
        <time>2009-10-30T14:38:10Z</time>
      </trkpt>
      <trkpt lat="42.79139" lon="0.28035">
        <ele>1225.3</ele>
        <time>2009-10-30T14:38:23Z</time>
      </trkpt>
      <trkpt lat="42.79143" lon="0.28045">
        <ele>1221.5</ele>
        <time>2009-10-30T14:38:36Z</time>
      </trkpt>
      <trkpt lat="42.79146" lon="0.28054">
        <ele>1221</ele>
        <time>2009-10-30T14:38:49Z</time>
      </trkpt>
      <trkpt lat="42.79147" lon="0.28055">
        <ele>1220.1</ele>
        <time>2009-10-30T14:39:02Z</time>
      </trkpt>
      <trkpt lat="42.79147" lon="0.28057">
        <ele>1219.6</ele>
        <time>2009-10-30T14:39:15Z</time>
      </trkpt>
      <trkpt lat="42.7915" lon="0.28065">
        <ele>1217.2</ele>
        <time>2009-10-30T14:39:28Z</time>
      </trkpt>
      <trkpt lat="42.79155" lon="0.28073">
        <ele>1213.3</ele>
        <time>2009-10-30T14:39:41Z</time>
      </trkpt>
      <trkpt lat="42.7915" lon="0.28085">
        <ele>1210.4</ele>
        <time>2009-10-30T14:39:54Z</time>
      </trkpt>
      <trkpt lat="42.79149" lon="0.28099">
        <ele>1210</ele>
        <time>2009-10-30T14:40:07Z</time>
      </trkpt>
      <trkpt lat="42.79149" lon="0.28106">
        <ele>1209.5</ele>
        <time>2009-10-30T14:40:20Z</time>
      </trkpt>
      <trkpt lat="42.79155" lon="0.28108">
        <ele>1206.6</ele>
        <time>2009-10-30T14:40:33Z</time>
      </trkpt>
      <trkpt lat="42.7916" lon="0.28105">
        <ele>1204.7</ele>
        <time>2009-10-30T14:40:46Z</time>
      </trkpt>
      <trkpt lat="42.79163" lon="0.28104">
        <ele>1202.7</ele>
        <time>2009-10-30T14:40:59Z</time>
      </trkpt>
      <trkpt lat="42.79163" lon="0.28116">
        <ele>1201.8</ele>
        <time>2009-10-30T14:41:12Z</time>
      </trkpt>
      <trkpt lat="42.79165" lon="0.28132">
        <ele>1200.8</ele>
        <time>2009-10-30T14:41:25Z</time>
      </trkpt>
      <trkpt lat="42.79169" lon="0.2815">
        <ele>1197.5</ele>
        <time>2009-10-30T14:41:38Z</time>
      </trkpt>
      <trkpt lat="42.79174" lon="0.28163">
        <ele>1192.7</ele>
        <time>2009-10-30T14:41:51Z</time>
      </trkpt>
      <trkpt lat="42.79182" lon="0.28171">
        <ele>1188.3</ele>
        <time>2009-10-30T14:42:04Z</time>
      </trkpt>
      <trkpt lat="42.79187" lon="0.28184">
        <ele>1184.5</ele>
        <time>2009-10-30T14:42:17Z</time>
      </trkpt>
      <trkpt lat="42.79196" lon="0.282">
        <ele>1183</ele>
        <time>2009-10-30T14:42:30Z</time>
      </trkpt>
      <trkpt lat="42.79208" lon="0.2821">
        <ele>1182.1</ele>
        <time>2009-10-30T14:42:43Z</time>
      </trkpt>
      <trkpt lat="42.79221" lon="0.28214">
        <ele>1179.7</ele>
        <time>2009-10-30T14:42:56Z</time>
      </trkpt>
      <trkpt lat="42.79233" lon="0.28219">
        <ele>1177.8</ele>
        <time>2009-10-30T14:43:09Z</time>
      </trkpt>
      <trkpt lat="42.79242" lon="0.28222">
        <ele>1176.3</ele>
        <time>2009-10-30T14:43:22Z</time>
      </trkpt>
      <trkpt lat="42.79243" lon="0.28224">
        <ele>1176.3</ele>
        <time>2009-10-30T14:43:35Z</time>
      </trkpt>
      <trkpt lat="42.79243" lon="0.28224">
        <ele>1175.3</ele>
        <time>2009-10-30T14:43:48Z</time>
      </trkpt>
      <trkpt lat="42.79251" lon="0.28222">
        <ele>1174.9</ele>
        <time>2009-10-30T14:44:01Z</time>
      </trkpt>
      <trkpt lat="42.79259" lon="0.28224">
        <ele>1172.9</ele>
        <time>2009-10-30T14:44:14Z</time>
      </trkpt>
      <trkpt lat="42.79263" lon="0.28227">
        <ele>1172.9</ele>
        <time>2009-10-30T14:44:27Z</time>
      </trkpt>
      <trkpt lat="42.79271" lon="0.28223">
        <ele>1171.5</ele>
        <time>2009-10-30T14:44:40Z</time>
      </trkpt>
      <trkpt lat="42.7928" lon="0.28234">
        <ele>1169.1</ele>
        <time>2009-10-30T14:44:53Z</time>
      </trkpt>
      <trkpt lat="42.79284" lon="0.28252">
        <ele>1166.7</ele>
        <time>2009-10-30T14:45:06Z</time>
      </trkpt>
      <trkpt lat="42.79283" lon="0.28272">
        <ele>1165.7</ele>
        <time>2009-10-30T14:45:19Z</time>
      </trkpt>
      <trkpt lat="42.79287" lon="0.2829">
        <ele>1164.3</ele>
        <time>2009-10-30T14:45:32Z</time>
      </trkpt>
      <trkpt lat="42.79297" lon="0.28303">
        <ele>1163.8</ele>
        <time>2009-10-30T14:45:45Z</time>
      </trkpt>
      <trkpt lat="42.79298" lon="0.28313">
        <ele>1161.9</ele>
        <time>2009-10-30T14:45:58Z</time>
      </trkpt>
      <trkpt lat="42.79305" lon="0.28322">
        <ele>1158.5</ele>
        <time>2009-10-30T14:46:11Z</time>
      </trkpt>
      <trkpt lat="42.79306" lon="0.2834">
        <ele>1160</ele>
        <time>2009-10-30T14:46:24Z</time>
      </trkpt>
      <trkpt lat="42.7931" lon="0.28353">
        <ele>1158.5</ele>
        <time>2009-10-30T14:46:37Z</time>
      </trkpt>
      <trkpt lat="42.79315" lon="0.28373">
        <ele>1157.6</ele>
        <time>2009-10-30T14:46:50Z</time>
      </trkpt>
      <trkpt lat="42.79319" lon="0.28391">
        <ele>1155.6</ele>
        <time>2009-10-30T14:47:03Z</time>
      </trkpt>
      <trkpt lat="42.79317" lon="0.28404">
        <ele>1155.2</ele>
        <time>2009-10-30T14:47:16Z</time>
      </trkpt>
      <trkpt lat="42.79318" lon="0.28419">
        <ele>1152.8</ele>
        <time>2009-10-30T14:47:29Z</time>
      </trkpt>
      <trkpt lat="42.79323" lon="0.28437">
        <ele>1151.8</ele>
        <time>2009-10-30T14:47:42Z</time>
      </trkpt>
      <trkpt lat="42.79326" lon="0.28457">
        <ele>1149.9</ele>
        <time>2009-10-30T14:47:55Z</time>
      </trkpt>
      <trkpt lat="42.79331" lon="0.28475">
        <ele>1148</ele>
        <time>2009-10-30T14:48:08Z</time>
      </trkpt>
      <trkpt lat="42.79329" lon="0.28493">
        <ele>1145.5</ele>
        <time>2009-10-30T14:48:21Z</time>
      </trkpt>
      <trkpt lat="42.79332" lon="0.28501">
        <ele>1145.1</ele>
        <time>2009-10-30T14:48:34Z</time>
      </trkpt>
      <trkpt lat="42.79337" lon="0.28512">
        <ele>1143.1</ele>
        <time>2009-10-30T14:48:47Z</time>
      </trkpt>
      <trkpt lat="42.79343" lon="0.28528">
        <ele>1140.7</ele>
        <time>2009-10-30T14:49:00Z</time>
      </trkpt>
      <trkpt lat="42.7935" lon="0.28545">
        <ele>1138.8</ele>
        <time>2009-10-30T14:49:13Z</time>
      </trkpt>
      <trkpt lat="42.79358" lon="0.28557">
        <ele>1135.5</ele>
        <time>2009-10-30T14:49:26Z</time>
      </trkpt>
      <trkpt lat="42.79362" lon="0.28571">
        <ele>1132.1</ele>
        <time>2009-10-30T14:49:39Z</time>
      </trkpt>
      <trkpt lat="42.79358" lon="0.28585">
        <ele>1127.3</ele>
        <time>2009-10-30T14:49:52Z</time>
      </trkpt>
      <trkpt lat="42.79361" lon="0.28599">
        <ele>1125.4</ele>
        <time>2009-10-30T14:50:05Z</time>
      </trkpt>
      <trkpt lat="42.79366" lon="0.2861">
        <ele>1123</ele>
        <time>2009-10-30T14:50:18Z</time>
      </trkpt>
      <trkpt lat="42.79371" lon="0.28622">
        <ele>1120.6</ele>
        <time>2009-10-30T14:50:31Z</time>
      </trkpt>
      <trkpt lat="42.79378" lon="0.28638">
        <ele>1118.2</ele>
        <time>2009-10-30T14:50:44Z</time>
      </trkpt>
      <trkpt lat="42.79383" lon="0.28655">
        <ele>1116.2</ele>
        <time>2009-10-30T14:50:57Z</time>
      </trkpt>
      <trkpt lat="42.79387" lon="0.28672">
        <ele>1114.3</ele>
        <time>2009-10-30T14:51:10Z</time>
      </trkpt>
      <trkpt lat="42.79389" lon="0.2869">
        <ele>1111.4</ele>
        <time>2009-10-30T14:51:23Z</time>
      </trkpt>
      <trkpt lat="42.79391" lon="0.28706">
        <ele>1108.5</ele>
        <time>2009-10-30T14:51:36Z</time>
      </trkpt>
      <trkpt lat="42.79396" lon="0.28719">
        <ele>1104.7</ele>
        <time>2009-10-30T14:51:49Z</time>
      </trkpt>
      <trkpt lat="42.794" lon="0.28727">
        <ele>1102.8</ele>
        <time>2009-10-30T14:52:02Z</time>
      </trkpt>
      <trkpt lat="42.79408" lon="0.28724">
        <ele>1099.4</ele>
        <time>2009-10-30T14:52:15Z</time>
      </trkpt>
      <trkpt lat="42.79412" lon="0.28711">
        <ele>1096.5</ele>
        <time>2009-10-30T14:52:28Z</time>
      </trkpt>
      <trkpt lat="42.79416" lon="0.28701">
        <ele>1092.7</ele>
        <time>2009-10-30T14:52:41Z</time>
      </trkpt>
      <trkpt lat="42.79422" lon="0.28688">
        <ele>1089.8</ele>
        <time>2009-10-30T14:52:54Z</time>
      </trkpt>
      <trkpt lat="42.79425" lon="0.28675">
        <ele>1085.5</ele>
        <time>2009-10-30T14:53:07Z</time>
      </trkpt>
      <trkpt lat="42.79428" lon="0.28662">
        <ele>1082.1</ele>
        <time>2009-10-30T14:53:20Z</time>
      </trkpt>
      <trkpt lat="42.79431" lon="0.28647">
        <ele>1080.7</ele>
        <time>2009-10-30T14:53:33Z</time>
      </trkpt>
      <trkpt lat="42.79433" lon="0.28634">
        <ele>1077.8</ele>
        <time>2009-10-30T14:53:46Z</time>
      </trkpt>
      <trkpt lat="42.79439" lon="0.28623">
        <ele>1073.9</ele>
        <time>2009-10-30T14:53:59Z</time>
      </trkpt>
      <trkpt lat="42.79447" lon="0.28627">
        <ele>1072</ele>
        <time>2009-10-30T14:54:12Z</time>
      </trkpt>
      <trkpt lat="42.79451" lon="0.28636">
        <ele>1070.1</ele>
        <time>2009-10-30T14:54:25Z</time>
      </trkpt>
      <trkpt lat="42.79455" lon="0.28651">
        <ele>1066.7</ele>
        <time>2009-10-30T14:54:38Z</time>
      </trkpt>
      <trkpt lat="42.79457" lon="0.28664">
        <ele>1064.3</ele>
        <time>2009-10-30T14:54:51Z</time>
      </trkpt>
      <trkpt lat="42.79459" lon="0.28674">
        <ele>1062.4</ele>
        <time>2009-10-30T14:55:04Z</time>
      </trkpt>
      <trkpt lat="42.79462" lon="0.28687">
        <ele>1060.5</ele>
        <time>2009-10-30T14:55:17Z</time>
      </trkpt>
      <trkpt lat="42.79467" lon="0.28701">
        <ele>1056.6</ele>
        <time>2009-10-30T14:55:30Z</time>
      </trkpt>
      <trkpt lat="42.79476" lon="0.28718">
        <ele>1053.7</ele>
        <time>2009-10-30T14:55:43Z</time>
      </trkpt>
      <trkpt lat="42.79482" lon="0.28728">
        <ele>1051.8</ele>
        <time>2009-10-30T14:55:56Z</time>
      </trkpt>
      <trkpt lat="42.79491" lon="0.28739">
        <ele>1048</ele>
        <time>2009-10-30T14:56:09Z</time>
      </trkpt>
      <trkpt lat="42.79499" lon="0.28751">
        <ele>1044.6</ele>
        <time>2009-10-30T14:56:22Z</time>
      </trkpt>
      <trkpt lat="42.79508" lon="0.28762">
        <ele>1042.7</ele>
        <time>2009-10-30T14:56:35Z</time>
      </trkpt>
      <trkpt lat="42.79515" lon="0.28772">
        <ele>1039.3</ele>
        <time>2009-10-30T14:56:48Z</time>
      </trkpt>
      <trkpt lat="42.79523" lon="0.28781">
        <ele>1036</ele>
        <time>2009-10-30T14:57:01Z</time>
      </trkpt>
      <trkpt lat="42.7953" lon="0.28791">
        <ele>1032.6</ele>
        <time>2009-10-30T14:57:14Z</time>
      </trkpt>
      <trkpt lat="42.79537" lon="0.28798">
        <ele>1029.2</ele>
        <time>2009-10-30T14:57:27Z</time>
      </trkpt>
      <trkpt lat="42.79548" lon="0.28808">
        <ele>1024.9</ele>
        <time>2009-10-30T14:57:40Z</time>
      </trkpt>
      <trkpt lat="42.79555" lon="0.28818">
        <ele>1022.5</ele>
        <time>2009-10-30T14:57:53Z</time>
      </trkpt>
      <trkpt lat="42.79559" lon="0.28828">
        <ele>1020.1</ele>
        <time>2009-10-30T14:58:06Z</time>
      </trkpt>
      <trkpt lat="42.79567" lon="0.28839">
        <ele>1016.7</ele>
        <time>2009-10-30T14:58:19Z</time>
      </trkpt>
      <trkpt lat="42.79571" lon="0.2885">
        <ele>1013.4</ele>
        <time>2009-10-30T14:58:32Z</time>
      </trkpt>
      <trkpt lat="42.79573" lon="0.28855">
        <ele>1011.9</ele>
        <time>2009-10-30T14:58:45Z</time>
      </trkpt>
      <trkpt lat="42.79576" lon="0.28863">
        <ele>1011.9</ele>
        <time>2009-10-30T14:58:58Z</time>
      </trkpt>
      <trkpt lat="42.79585" lon="0.28873">
        <ele>1009.5</ele>
        <time>2009-10-30T14:59:11Z</time>
      </trkpt>
      <trkpt lat="42.79592" lon="0.28882">
        <ele>1006.2</ele>
        <time>2009-10-30T14:59:24Z</time>
      </trkpt>
      <trkpt lat="42.79604" lon="0.28884">
        <ele>1004.7</ele>
        <time>2009-10-30T14:59:37Z</time>
      </trkpt>
      <trkpt lat="42.79614" lon="0.28878">
        <ele>1001.8</ele>
        <time>2009-10-30T14:59:50Z</time>
      </trkpt>
      <trkpt lat="42.79616" lon="0.28876">
        <ele>1001.4</ele>
        <time>2009-10-30T15:00:03Z</time>
      </trkpt>
      <trkpt lat="42.79622" lon="0.2887">
        <ele>1000.4</ele>
        <time>2009-10-30T15:00:16Z</time>
      </trkpt>
      <trkpt lat="42.79633" lon="0.28863">
        <ele>996.5</ele>
        <time>2009-10-30T15:00:29Z</time>
      </trkpt>
      <trkpt lat="42.79644" lon="0.28856">
        <ele>996.1</ele>
        <time>2009-10-30T15:00:42Z</time>
      </trkpt>
      <trkpt lat="42.79658" lon="0.28853">
        <ele>993.2</ele>
        <time>2009-10-30T15:00:55Z</time>
      </trkpt>
      <trkpt lat="42.79661" lon="0.28851">
        <ele>991.7</ele>
        <time>2009-10-30T15:01:08Z</time>
      </trkpt>
      <trkpt lat="42.79665" lon="0.2885">
        <ele>989.3</ele>
        <time>2009-10-30T15:01:21Z</time>
      </trkpt>
      <trkpt lat="42.79683" lon="0.28839">
        <ele>987.9</ele>
        <time>2009-10-30T15:01:34Z</time>
      </trkpt>
      <trkpt lat="42.79697" lon="0.28839">
        <ele>987.9</ele>
        <time>2009-10-30T15:01:47Z</time>
      </trkpt>
      <trkpt lat="42.79703" lon="0.28836">
        <ele>966.4</ele>
        <time>2009-10-30T15:02:00Z</time>
      </trkpt>
    </trkseg>
  </trk>
</gpx>